<?xml version="1.0" encoding="UTF-8" standalone="no" ?>
<gpx xmlns="http://www.topografix.com/GPX/1/1" xmlns:xsi="http://www.w3.org/2001/XMLSchema-instance" xsi:schemaLocation="http://www.topografix.com/GPX/1/1 http://www.topografix.com/GPX/1/1/gpx.xsd" version="1.1" creator="VisuGPX - https://www.visugpx.com">
  <metadata>
    <name>ST_RAD - COMBS 8.5KM -200</name>
    <desc><![CDATA[SORTIE 8.5KM  -200M]]></desc>
  </metadata>
  <trk>
    <name><![CDATA[st rad 8km +-]]></name>
    <trkseg>
      <trkpt lat="44.33575" lon="2.62928">
        <ele>648.065918</ele>
        <time>2014-02-19T07:28:11Z</time>
      </trkpt>
      <trkpt lat="44.33575" lon="2.62927">
        <ele>648.065918</ele>
        <time>2014-02-19T07:28:12Z</time>
      </trkpt>
      <trkpt lat="44.33575" lon="2.62927">
        <ele>648.5463867</ele>
        <time>2014-02-19T07:28:13Z</time>
      </trkpt>
      <trkpt lat="44.33568" lon="2.62934">
        <ele>648.5463867</ele>
        <time>2014-02-19T07:28:16Z</time>
      </trkpt>
      <trkpt lat="44.33563" lon="2.62942">
        <ele>649.5078125</ele>
        <time>2014-02-19T07:28:19Z</time>
      </trkpt>
      <trkpt lat="44.33562" lon="2.62954">
        <ele>649.9885254</ele>
        <time>2014-02-19T07:28:23Z</time>
      </trkpt>
      <trkpt lat="44.33566" lon="2.62972">
        <ele>649.0270996</ele>
        <time>2014-02-19T07:28:28Z</time>
      </trkpt>
      <trkpt lat="44.33571" lon="2.6299">
        <ele>648.5463867</ele>
        <time>2014-02-19T07:28:34Z</time>
      </trkpt>
      <trkpt lat="44.33572" lon="2.63005">
        <ele>647.1044922</ele>
        <time>2014-02-19T07:28:39Z</time>
      </trkpt>
      <trkpt lat="44.33573" lon="2.63015">
        <ele>646.6240234</ele>
        <time>2014-02-19T07:28:42Z</time>
      </trkpt>
      <trkpt lat="44.33573" lon="2.63028">
        <ele>646.6240234</ele>
        <time>2014-02-19T07:28:46Z</time>
      </trkpt>
      <trkpt lat="44.33565" lon="2.63039">
        <ele>645.6625977</ele>
        <time>2014-02-19T07:28:50Z</time>
      </trkpt>
      <trkpt lat="44.33564" lon="2.63043">
        <ele>645.6625977</ele>
        <time>2014-02-19T07:28:51Z</time>
      </trkpt>
      <trkpt lat="44.33563" lon="2.63064">
        <ele>645.1818848</ele>
        <time>2014-02-19T07:28:56Z</time>
      </trkpt>
      <trkpt lat="44.3356" lon="2.6308">
        <ele>644.7011719</ele>
        <time>2014-02-19T07:29:00Z</time>
      </trkpt>
      <trkpt lat="44.33556" lon="2.63098">
        <ele>642.7788086</ele>
        <time>2014-02-19T07:29:05Z</time>
      </trkpt>
      <trkpt lat="44.33549" lon="2.6312">
        <ele>641.3366699</ele>
        <time>2014-02-19T07:29:11Z</time>
      </trkpt>
      <trkpt lat="44.33541" lon="2.63138">
        <ele>640.3754883</ele>
        <time>2014-02-19T07:29:16Z</time>
      </trkpt>
      <trkpt lat="44.33535" lon="2.63152">
        <ele>639.8947754</ele>
        <time>2014-02-19T07:29:20Z</time>
      </trkpt>
      <trkpt lat="44.33532" lon="2.63166">
        <ele>640.855957</ele>
        <time>2014-02-19T07:29:24Z</time>
      </trkpt>
      <trkpt lat="44.3353" lon="2.6318">
        <ele>640.3754883</ele>
        <time>2014-02-19T07:29:28Z</time>
      </trkpt>
      <trkpt lat="44.33525" lon="2.63199">
        <ele>639.8947754</ele>
        <time>2014-02-19T07:29:33Z</time>
      </trkpt>
      <trkpt lat="44.33521" lon="2.63211">
        <ele>638.9335938</ele>
        <time>2014-02-19T07:29:37Z</time>
      </trkpt>
      <trkpt lat="44.33518" lon="2.63228">
        <ele>636.5302734</ele>
        <time>2014-02-19T07:29:41Z</time>
      </trkpt>
      <trkpt lat="44.33514" lon="2.63244">
        <ele>635.5686035</ele>
        <time>2014-02-19T07:29:45Z</time>
      </trkpt>
      <trkpt lat="44.3351" lon="2.63253">
        <ele>635.0881348</ele>
        <time>2014-02-19T07:29:48Z</time>
      </trkpt>
      <trkpt lat="44.33507" lon="2.63262">
        <ele>634.6074219</ele>
        <time>2014-02-19T07:29:51Z</time>
      </trkpt>
      <trkpt lat="44.33503" lon="2.63275">
        <ele>634.126709</ele>
        <time>2014-02-19T07:29:55Z</time>
      </trkpt>
      <trkpt lat="44.33501" lon="2.63301">
        <ele>633.6459961</ele>
        <time>2014-02-19T07:30:01Z</time>
      </trkpt>
      <trkpt lat="44.33498" lon="2.63314">
        <ele>634.6074219</ele>
        <time>2014-02-19T07:30:04Z</time>
      </trkpt>
      <trkpt lat="44.33497" lon="2.63317">
        <ele>635.0881348</ele>
        <time>2014-02-19T07:30:05Z</time>
      </trkpt>
      <trkpt lat="44.33493" lon="2.63338">
        <ele>635.5686035</ele>
        <time>2014-02-19T07:30:10Z</time>
      </trkpt>
      <trkpt lat="44.33488" lon="2.63358">
        <ele>636.0495605</ele>
        <time>2014-02-19T07:30:15Z</time>
      </trkpt>
      <trkpt lat="44.33487" lon="2.63365">
        <ele>636.5302734</ele>
        <time>2014-02-19T07:30:17Z</time>
      </trkpt>
      <trkpt lat="44.33484" lon="2.63383">
        <ele>637.4914551</ele>
        <time>2014-02-19T07:30:22Z</time>
      </trkpt>
      <trkpt lat="44.33483" lon="2.63397">
        <ele>638.4528809</ele>
        <time>2014-02-19T07:30:25Z</time>
      </trkpt>
      <trkpt lat="44.33482" lon="2.634">
        <ele>638.4528809</ele>
        <time>2014-02-19T07:30:26Z</time>
      </trkpt>
      <trkpt lat="44.33481" lon="2.63415">
        <ele>638.4528809</ele>
        <time>2014-02-19T07:30:31Z</time>
      </trkpt>
      <trkpt lat="44.33481" lon="2.63428">
        <ele>639.4140625</ele>
        <time>2014-02-19T07:30:35Z</time>
      </trkpt>
      <trkpt lat="44.33477" lon="2.63448">
        <ele>638.4528809</ele>
        <time>2014-02-19T07:30:40Z</time>
      </trkpt>
      <trkpt lat="44.33471" lon="2.63461">
        <ele>637.0107422</ele>
        <time>2014-02-19T07:30:44Z</time>
      </trkpt>
      <trkpt lat="44.33467" lon="2.63472">
        <ele>636.5302734</ele>
        <time>2014-02-19T07:30:47Z</time>
      </trkpt>
      <trkpt lat="44.33462" lon="2.63488">
        <ele>635.5686035</ele>
        <time>2014-02-19T07:30:52Z</time>
      </trkpt>
      <trkpt lat="44.3346" lon="2.63494">
        <ele>635.0881348</ele>
        <time>2014-02-19T07:30:54Z</time>
      </trkpt>
      <trkpt lat="44.33456" lon="2.63509">
        <ele>634.126709</ele>
        <time>2014-02-19T07:30:58Z</time>
      </trkpt>
      <trkpt lat="44.33451" lon="2.6353">
        <ele>631.7233887</ele>
        <time>2014-02-19T07:31:04Z</time>
      </trkpt>
      <trkpt lat="44.33451" lon="2.63544">
        <ele>630.762207</ele>
        <time>2014-02-19T07:31:08Z</time>
      </trkpt>
      <trkpt lat="44.3345" lon="2.63558">
        <ele>629.8007813</ele>
        <time>2014-02-19T07:31:12Z</time>
      </trkpt>
      <trkpt lat="44.33442" lon="2.63581">
        <ele>630.2814941</ele>
        <time>2014-02-19T07:31:17Z</time>
      </trkpt>
      <trkpt lat="44.33438" lon="2.63587">
        <ele>630.2814941</ele>
        <time>2014-02-19T07:31:19Z</time>
      </trkpt>
      <trkpt lat="44.33429" lon="2.63597">
        <ele>630.2814941</ele>
        <time>2014-02-19T07:31:24Z</time>
      </trkpt>
      <trkpt lat="44.33423" lon="2.63604">
        <ele>630.762207</ele>
        <time>2014-02-19T07:31:27Z</time>
      </trkpt>
      <trkpt lat="44.33417" lon="2.63613">
        <ele>630.762207</ele>
        <time>2014-02-19T07:31:31Z</time>
      </trkpt>
      <trkpt lat="44.33409" lon="2.63622">
        <ele>632.6848145</ele>
        <time>2014-02-19T07:31:36Z</time>
      </trkpt>
      <trkpt lat="44.33402" lon="2.63631">
        <ele>634.6074219</ele>
        <time>2014-02-19T07:31:41Z</time>
      </trkpt>
      <trkpt lat="44.33399" lon="2.63635">
        <ele>635.5686035</ele>
        <time>2014-02-19T07:31:43Z</time>
      </trkpt>
      <trkpt lat="44.33394" lon="2.63642">
        <ele>637.972168</ele>
        <time>2014-02-19T07:31:47Z</time>
      </trkpt>
      <trkpt lat="44.33387" lon="2.63658">
        <ele>641.3366699</ele>
        <time>2014-02-19T07:31:53Z</time>
      </trkpt>
      <trkpt lat="44.33379" lon="2.63669">
        <ele>643.2592773</ele>
        <time>2014-02-19T07:32:00Z</time>
      </trkpt>
      <trkpt lat="44.33372" lon="2.6368">
        <ele>643.7399902</ele>
        <time>2014-02-19T07:32:06Z</time>
      </trkpt>
      <trkpt lat="44.33365" lon="2.63693">
        <ele>644.2207031</ele>
        <time>2014-02-19T07:32:12Z</time>
      </trkpt>
      <trkpt lat="44.33358" lon="2.63709">
        <ele>646.6240234</ele>
        <time>2014-02-19T07:32:19Z</time>
      </trkpt>
      <trkpt lat="44.33355" lon="2.63722">
        <ele>647.5852051</ele>
        <time>2014-02-19T07:32:24Z</time>
      </trkpt>
      <trkpt lat="44.33353" lon="2.63738">
        <ele>649.5078125</ele>
        <time>2014-02-19T07:32:30Z</time>
      </trkpt>
      <trkpt lat="44.33349" lon="2.63754">
        <ele>650.949707</ele>
        <time>2014-02-19T07:32:36Z</time>
      </trkpt>
      <trkpt lat="44.33345" lon="2.63767">
        <ele>651.4304199</ele>
        <time>2014-02-19T07:32:41Z</time>
      </trkpt>
      <trkpt lat="44.33341" lon="2.6378">
        <ele>651.9111328</ele>
        <time>2014-02-19T07:32:46Z</time>
      </trkpt>
      <trkpt lat="44.33336" lon="2.63797">
        <ele>652.8725586</ele>
        <time>2014-02-19T07:32:52Z</time>
      </trkpt>
      <trkpt lat="44.33331" lon="2.63809">
        <ele>653.3532715</ele>
        <time>2014-02-19T07:32:57Z</time>
      </trkpt>
      <trkpt lat="44.33329" lon="2.63819">
        <ele>654.795166</ele>
        <time>2014-02-19T07:33:01Z</time>
      </trkpt>
      <trkpt lat="44.33324" lon="2.63838">
        <ele>655.2758789</ele>
        <time>2014-02-19T07:33:08Z</time>
      </trkpt>
      <trkpt lat="44.33321" lon="2.63855">
        <ele>656.7177734</ele>
        <time>2014-02-19T07:33:14Z</time>
      </trkpt>
      <trkpt lat="44.33317" lon="2.63872">
        <ele>657.1984863</ele>
        <time>2014-02-19T07:33:20Z</time>
      </trkpt>
      <trkpt lat="44.33312" lon="2.63893">
        <ele>658.6403809</ele>
        <time>2014-02-19T07:33:27Z</time>
      </trkpt>
      <trkpt lat="44.33307" lon="2.63913">
        <ele>660.0822754</ele>
        <time>2014-02-19T07:33:34Z</time>
      </trkpt>
      <trkpt lat="44.33302" lon="2.63937">
        <ele>661.0437012</ele>
        <time>2014-02-19T07:33:42Z</time>
      </trkpt>
      <trkpt lat="44.333" lon="2.63962">
        <ele>662.005127</ele>
        <time>2014-02-19T07:33:50Z</time>
      </trkpt>
      <trkpt lat="44.33298" lon="2.6398">
        <ele>663.4470215</ele>
        <time>2014-02-19T07:33:56Z</time>
      </trkpt>
      <trkpt lat="44.33294" lon="2.63999">
        <ele>663.9274902</ele>
        <time>2014-02-19T07:34:02Z</time>
      </trkpt>
      <trkpt lat="44.33288" lon="2.64019">
        <ele>663.4470215</ele>
        <time>2014-02-19T07:34:09Z</time>
      </trkpt>
      <trkpt lat="44.33283" lon="2.6404">
        <ele>663.4470215</ele>
        <time>2014-02-19T07:34:16Z</time>
      </trkpt>
      <trkpt lat="44.33281" lon="2.64068">
        <ele>664.4082031</ele>
        <time>2014-02-19T07:34:24Z</time>
      </trkpt>
      <trkpt lat="44.33278" lon="2.64091">
        <ele>665.3696289</ele>
        <time>2014-02-19T07:34:31Z</time>
      </trkpt>
      <trkpt lat="44.33274" lon="2.6411">
        <ele>665.3696289</ele>
        <time>2014-02-19T07:34:37Z</time>
      </trkpt>
      <trkpt lat="44.33269" lon="2.64132">
        <ele>666.3308105</ele>
        <time>2014-02-19T07:34:44Z</time>
      </trkpt>
      <trkpt lat="44.33264" lon="2.64154">
        <ele>666.8115234</ele>
        <time>2014-02-19T07:34:51Z</time>
      </trkpt>
      <trkpt lat="44.33259" lon="2.64175">
        <ele>666.8115234</ele>
        <time>2014-02-19T07:34:58Z</time>
      </trkpt>
      <trkpt lat="44.33257" lon="2.64184">
        <ele>666.8115234</ele>
        <time>2014-02-19T07:35:01Z</time>
      </trkpt>
      <trkpt lat="44.33253" lon="2.64198">
        <ele>667.2922363</ele>
        <time>2014-02-19T07:35:06Z</time>
      </trkpt>
      <trkpt lat="44.33247" lon="2.64212">
        <ele>667.7727051</ele>
        <time>2014-02-19T07:35:11Z</time>
      </trkpt>
      <trkpt lat="44.33241" lon="2.6423">
        <ele>668.734375</ele>
        <time>2014-02-19T07:35:17Z</time>
      </trkpt>
      <trkpt lat="44.33234" lon="2.64247">
        <ele>669.6958008</ele>
        <time>2014-02-19T07:35:23Z</time>
      </trkpt>
      <trkpt lat="44.33227" lon="2.64264">
        <ele>670.6569824</ele>
        <time>2014-02-19T07:35:29Z</time>
      </trkpt>
      <trkpt lat="44.3322" lon="2.64281">
        <ele>670.6569824</ele>
        <time>2014-02-19T07:35:35Z</time>
      </trkpt>
      <trkpt lat="44.33212" lon="2.643">
        <ele>671.6181641</ele>
        <time>2014-02-19T07:35:41Z</time>
      </trkpt>
      <trkpt lat="44.33205" lon="2.64319">
        <ele>673.0603027</ele>
        <time>2014-02-19T07:35:47Z</time>
      </trkpt>
      <trkpt lat="44.33197" lon="2.64338">
        <ele>674.0214844</ele>
        <time>2014-02-19T07:35:53Z</time>
      </trkpt>
      <trkpt lat="44.33193" lon="2.64349">
        <ele>674.5021973</ele>
        <time>2014-02-19T07:35:57Z</time>
      </trkpt>
      <trkpt lat="44.33186" lon="2.64368">
        <ele>675.4633789</ele>
        <time>2014-02-19T07:36:03Z</time>
      </trkpt>
      <trkpt lat="44.3318" lon="2.64385">
        <ele>674.5021973</ele>
        <time>2014-02-19T07:36:09Z</time>
      </trkpt>
      <trkpt lat="44.33174" lon="2.64403">
        <ele>674.5021973</ele>
        <time>2014-02-19T07:36:15Z</time>
      </trkpt>
      <trkpt lat="44.33171" lon="2.64415">
        <ele>674.5021973</ele>
        <time>2014-02-19T07:36:19Z</time>
      </trkpt>
      <trkpt lat="44.33166" lon="2.6444">
        <ele>675.4633789</ele>
        <time>2014-02-19T07:36:26Z</time>
      </trkpt>
      <trkpt lat="44.33162" lon="2.64458">
        <ele>675.4633789</ele>
        <time>2014-02-19T07:36:31Z</time>
      </trkpt>
      <trkpt lat="44.33159" lon="2.6447">
        <ele>675.9440918</ele>
        <time>2014-02-19T07:36:35Z</time>
      </trkpt>
      <trkpt lat="44.3315" lon="2.64487">
        <ele>676.4248047</ele>
        <time>2014-02-19T07:36:41Z</time>
      </trkpt>
      <trkpt lat="44.33144" lon="2.64498">
        <ele>676.4248047</ele>
        <time>2014-02-19T07:36:45Z</time>
      </trkpt>
      <trkpt lat="44.33137" lon="2.64518">
        <ele>677.8666992</ele>
        <time>2014-02-19T07:36:51Z</time>
      </trkpt>
      <trkpt lat="44.33131" lon="2.64538">
        <ele>677.8666992</ele>
        <time>2014-02-19T07:36:57Z</time>
      </trkpt>
      <trkpt lat="44.33124" lon="2.64561">
        <ele>678.3474121</ele>
        <time>2014-02-19T07:37:03Z</time>
      </trkpt>
      <trkpt lat="44.33117" lon="2.64572">
        <ele>678.3474121</ele>
        <time>2014-02-19T07:37:07Z</time>
      </trkpt>
      <trkpt lat="44.33109" lon="2.6459">
        <ele>678.3474121</ele>
        <time>2014-02-19T07:37:13Z</time>
      </trkpt>
      <trkpt lat="44.33107" lon="2.64602">
        <ele>678.3474121</ele>
        <time>2014-02-19T07:37:17Z</time>
      </trkpt>
      <trkpt lat="44.33107" lon="2.64602">
        <ele>678.3474121</ele>
        <time>2014-02-19T07:37:18Z</time>
      </trkpt>
      <trkpt lat="44.33106" lon="2.64612">
        <ele>678.3474121</ele>
        <time>2014-02-19T07:37:22Z</time>
      </trkpt>
      <trkpt lat="44.33106" lon="2.64619">
        <ele>678.3474121</ele>
        <time>2014-02-19T07:37:24Z</time>
      </trkpt>
      <trkpt lat="44.33102" lon="2.6464">
        <ele>678.828125</ele>
        <time>2014-02-19T07:37:30Z</time>
      </trkpt>
      <trkpt lat="44.33099" lon="2.64659">
        <ele>678.3474121</ele>
        <time>2014-02-19T07:37:36Z</time>
      </trkpt>
      <trkpt lat="44.33098" lon="2.64677">
        <ele>678.828125</ele>
        <time>2014-02-19T07:37:41Z</time>
      </trkpt>
      <trkpt lat="44.33094" lon="2.64693">
        <ele>677.3862305</ele>
        <time>2014-02-19T07:37:46Z</time>
      </trkpt>
      <trkpt lat="44.33091" lon="2.64707">
        <ele>676.9055176</ele>
        <time>2014-02-19T07:37:50Z</time>
      </trkpt>
      <trkpt lat="44.33085" lon="2.64728">
        <ele>676.4248047</ele>
        <time>2014-02-19T07:37:56Z</time>
      </trkpt>
      <trkpt lat="44.3308" lon="2.64744">
        <ele>675.4633789</ele>
        <time>2014-02-19T07:38:01Z</time>
      </trkpt>
      <trkpt lat="44.33077" lon="2.64762">
        <ele>675.4633789</ele>
        <time>2014-02-19T07:38:06Z</time>
      </trkpt>
      <trkpt lat="44.33076" lon="2.64778">
        <ele>674.5021973</ele>
        <time>2014-02-19T07:38:10Z</time>
      </trkpt>
      <trkpt lat="44.33075" lon="2.64794">
        <ele>671.6181641</ele>
        <time>2014-02-19T07:38:15Z</time>
      </trkpt>
      <trkpt lat="44.33072" lon="2.6481">
        <ele>669.6958008</ele>
        <time>2014-02-19T07:38:20Z</time>
      </trkpt>
      <trkpt lat="44.3307" lon="2.64825">
        <ele>668.2536621</ele>
        <time>2014-02-19T07:38:24Z</time>
      </trkpt>
      <trkpt lat="44.3307" lon="2.64829">
        <ele>667.7727051</ele>
        <time>2014-02-19T07:38:25Z</time>
      </trkpt>
      <trkpt lat="44.33065" lon="2.64843">
        <ele>664.888916</ele>
        <time>2014-02-19T07:38:29Z</time>
      </trkpt>
      <trkpt lat="44.33051" lon="2.64849">
        <ele>662.4855957</ele>
        <time>2014-02-19T07:38:35Z</time>
      </trkpt>
      <trkpt lat="44.33033" lon="2.64846">
        <ele>662.005127</ele>
        <time>2014-02-19T07:38:42Z</time>
      </trkpt>
      <trkpt lat="44.33019" lon="2.64842">
        <ele>662.005127</ele>
        <time>2014-02-19T07:38:48Z</time>
      </trkpt>
      <trkpt lat="44.33007" lon="2.64839">
        <ele>662.4855957</ele>
        <time>2014-02-19T07:38:53Z</time>
      </trkpt>
      <trkpt lat="44.32995" lon="2.64835">
        <ele>662.9663086</ele>
        <time>2014-02-19T07:38:58Z</time>
      </trkpt>
      <trkpt lat="44.3298" lon="2.64831">
        <ele>662.9663086</ele>
        <time>2014-02-19T07:39:04Z</time>
      </trkpt>
      <trkpt lat="44.32974" lon="2.64831">
        <ele>663.4470215</ele>
        <time>2014-02-19T07:39:06Z</time>
      </trkpt>
      <trkpt lat="44.3296" lon="2.64825">
        <ele>663.4470215</ele>
        <time>2014-02-19T07:39:12Z</time>
      </trkpt>
      <trkpt lat="44.32958" lon="2.64824">
        <ele>663.4470215</ele>
        <time>2014-02-19T07:39:13Z</time>
      </trkpt>
      <trkpt lat="44.32945" lon="2.64822">
        <ele>663.9274902</ele>
        <time>2014-02-19T07:39:18Z</time>
      </trkpt>
      <trkpt lat="44.32931" lon="2.64821">
        <ele>663.9274902</ele>
        <time>2014-02-19T07:39:23Z</time>
      </trkpt>
      <trkpt lat="44.32916" lon="2.64818">
        <ele>663.4470215</ele>
        <time>2014-02-19T07:39:29Z</time>
      </trkpt>
      <trkpt lat="44.32903" lon="2.64816">
        <ele>663.9274902</ele>
        <time>2014-02-19T07:39:34Z</time>
      </trkpt>
      <trkpt lat="44.32891" lon="2.64812">
        <ele>663.9274902</ele>
        <time>2014-02-19T07:39:39Z</time>
      </trkpt>
      <trkpt lat="44.32875" lon="2.64809">
        <ele>662.4855957</ele>
        <time>2014-02-19T07:39:45Z</time>
      </trkpt>
      <trkpt lat="44.3286" lon="2.64807">
        <ele>662.4855957</ele>
        <time>2014-02-19T07:39:51Z</time>
      </trkpt>
      <trkpt lat="44.32849" lon="2.64805">
        <ele>662.4855957</ele>
        <time>2014-02-19T07:39:55Z</time>
      </trkpt>
      <trkpt lat="44.32835" lon="2.64803">
        <ele>662.4855957</ele>
        <time>2014-02-19T07:40:00Z</time>
      </trkpt>
      <trkpt lat="44.32823" lon="2.64802">
        <ele>662.4855957</ele>
        <time>2014-02-19T07:40:05Z</time>
      </trkpt>
      <trkpt lat="44.32815" lon="2.648">
        <ele>662.4855957</ele>
        <time>2014-02-19T07:40:08Z</time>
      </trkpt>
      <trkpt lat="44.32805" lon="2.64794">
        <ele>661.5244141</ele>
        <time>2014-02-19T07:40:12Z</time>
      </trkpt>
      <trkpt lat="44.32794" lon="2.64788">
        <ele>658.6403809</ele>
        <time>2014-02-19T07:40:16Z</time>
      </trkpt>
      <trkpt lat="44.32788" lon="2.64786">
        <ele>657.1984863</ele>
        <time>2014-02-19T07:40:18Z</time>
      </trkpt>
      <trkpt lat="44.32778" lon="2.64786">
        <ele>654.3146973</ele>
        <time>2014-02-19T07:40:22Z</time>
      </trkpt>
      <trkpt lat="44.32772" lon="2.64786">
        <ele>652.3918457</ele>
        <time>2014-02-19T07:40:24Z</time>
      </trkpt>
      <trkpt lat="44.32761" lon="2.64789">
        <ele>649.5078125</ele>
        <time>2014-02-19T07:40:28Z</time>
      </trkpt>
      <trkpt lat="44.32756" lon="2.64788">
        <ele>648.5463867</ele>
        <time>2014-02-19T07:40:30Z</time>
      </trkpt>
      <trkpt lat="44.32744" lon="2.64785">
        <ele>646.1433105</ele>
        <time>2014-02-19T07:40:35Z</time>
      </trkpt>
      <trkpt lat="44.32728" lon="2.64783">
        <ele>643.2592773</ele>
        <time>2014-02-19T07:40:41Z</time>
      </trkpt>
      <trkpt lat="44.32721" lon="2.64786">
        <ele>642.2980957</ele>
        <time>2014-02-19T07:40:44Z</time>
      </trkpt>
      <trkpt lat="44.32708" lon="2.64778">
        <ele>642.2980957</ele>
        <time>2014-02-19T07:40:49Z</time>
      </trkpt>
      <trkpt lat="44.327" lon="2.64779">
        <ele>642.2980957</ele>
        <time>2014-02-19T07:40:53Z</time>
      </trkpt>
      <trkpt lat="44.32689" lon="2.64779">
        <ele>641.8173828</ele>
        <time>2014-02-19T07:40:58Z</time>
      </trkpt>
      <trkpt lat="44.32674" lon="2.64781">
        <ele>643.2592773</ele>
        <time>2014-02-19T07:41:04Z</time>
      </trkpt>
      <trkpt lat="44.32662" lon="2.64781">
        <ele>643.7399902</ele>
        <time>2014-02-19T07:41:09Z</time>
      </trkpt>
      <trkpt lat="44.32651" lon="2.64782">
        <ele>644.2207031</ele>
        <time>2014-02-19T07:41:14Z</time>
      </trkpt>
      <trkpt lat="44.32637" lon="2.64786">
        <ele>644.7011719</ele>
        <time>2014-02-19T07:41:20Z</time>
      </trkpt>
      <trkpt lat="44.32628" lon="2.6479">
        <ele>644.7011719</ele>
        <time>2014-02-19T07:41:24Z</time>
      </trkpt>
      <trkpt lat="44.32615" lon="2.64797">
        <ele>645.1818848</ele>
        <time>2014-02-19T07:41:30Z</time>
      </trkpt>
      <trkpt lat="44.32605" lon="2.648">
        <ele>645.6625977</ele>
        <time>2014-02-19T07:41:34Z</time>
      </trkpt>
      <trkpt lat="44.32603" lon="2.64801">
        <ele>646.1433105</ele>
        <time>2014-02-19T07:41:35Z</time>
      </trkpt>
      <trkpt lat="44.32597" lon="2.64809">
        <ele>646.1433105</ele>
        <time>2014-02-19T07:41:41Z</time>
      </trkpt>
      <trkpt lat="44.32591" lon="2.64813">
        <ele>646.1433105</ele>
        <time>2014-02-19T07:41:45Z</time>
      </trkpt>
      <trkpt lat="44.3258" lon="2.64821">
        <ele>646.1433105</ele>
        <time>2014-02-19T07:41:50Z</time>
      </trkpt>
      <trkpt lat="44.32571" lon="2.64828">
        <ele>646.6240234</ele>
        <time>2014-02-19T07:41:56Z</time>
      </trkpt>
      <trkpt lat="44.32562" lon="2.64837">
        <ele>648.065918</ele>
        <time>2014-02-19T07:42:02Z</time>
      </trkpt>
      <trkpt lat="44.32556" lon="2.64841">
        <ele>648.5463867</ele>
        <time>2014-02-19T07:42:06Z</time>
      </trkpt>
      <trkpt lat="44.32549" lon="2.64846">
        <ele>648.065918</ele>
        <time>2014-02-19T07:42:10Z</time>
      </trkpt>
      <trkpt lat="44.32542" lon="2.64852">
        <ele>648.5463867</ele>
        <time>2014-02-19T07:42:15Z</time>
      </trkpt>
      <trkpt lat="44.32531" lon="2.64857">
        <ele>648.5463867</ele>
        <time>2014-02-19T07:42:21Z</time>
      </trkpt>
      <trkpt lat="44.32524" lon="2.64859">
        <ele>648.5463867</ele>
        <time>2014-02-19T07:42:25Z</time>
      </trkpt>
      <trkpt lat="44.32514" lon="2.64867">
        <ele>649.5078125</ele>
        <time>2014-02-19T07:42:31Z</time>
      </trkpt>
      <trkpt lat="44.32504" lon="2.64875">
        <ele>651.4304199</ele>
        <time>2014-02-19T07:42:36Z</time>
      </trkpt>
      <trkpt lat="44.32496" lon="2.64893">
        <ele>654.3146973</ele>
        <time>2014-02-19T07:42:43Z</time>
      </trkpt>
      <trkpt lat="44.32487" lon="2.64914">
        <ele>657.1984863</ele>
        <time>2014-02-19T07:42:50Z</time>
      </trkpt>
      <trkpt lat="44.3248" lon="2.64925">
        <ele>656.2370605</ele>
        <time>2014-02-19T07:42:55Z</time>
      </trkpt>
      <trkpt lat="44.32474" lon="2.6494">
        <ele>656.2370605</ele>
        <time>2014-02-19T07:43:00Z</time>
      </trkpt>
      <trkpt lat="44.32466" lon="2.64956">
        <ele>657.1984863</ele>
        <time>2014-02-19T07:43:06Z</time>
      </trkpt>
      <trkpt lat="44.32459" lon="2.64969">
        <ele>656.2370605</ele>
        <time>2014-02-19T07:43:12Z</time>
      </trkpt>
      <trkpt lat="44.32451" lon="2.64987">
        <ele>656.7177734</ele>
        <time>2014-02-19T07:43:19Z</time>
      </trkpt>
      <trkpt lat="44.32444" lon="2.65002">
        <ele>657.1984863</ele>
        <time>2014-02-19T07:43:25Z</time>
      </trkpt>
      <trkpt lat="44.3244" lon="2.65011">
        <ele>657.6791992</ele>
        <time>2014-02-19T07:43:29Z</time>
      </trkpt>
      <trkpt lat="44.32435" lon="2.65025">
        <ele>658.1599121</ele>
        <time>2014-02-19T07:43:34Z</time>
      </trkpt>
      <trkpt lat="44.3243" lon="2.65043">
        <ele>660.0822754</ele>
        <time>2014-02-19T07:43:40Z</time>
      </trkpt>
      <trkpt lat="44.32428" lon="2.65048">
        <ele>660.0822754</ele>
        <time>2014-02-19T07:43:42Z</time>
      </trkpt>
      <trkpt lat="44.32423" lon="2.65064">
        <ele>661.0437012</ele>
        <time>2014-02-19T07:43:48Z</time>
      </trkpt>
      <trkpt lat="44.32421" lon="2.6507">
        <ele>661.0437012</ele>
        <time>2014-02-19T07:43:50Z</time>
      </trkpt>
      <trkpt lat="44.32417" lon="2.65084">
        <ele>662.005127</ele>
        <time>2014-02-19T07:43:55Z</time>
      </trkpt>
      <trkpt lat="44.32412" lon="2.65105">
        <ele>664.888916</ele>
        <time>2014-02-19T07:44:02Z</time>
      </trkpt>
      <trkpt lat="44.32408" lon="2.65113">
        <ele>665.8503418</ele>
        <time>2014-02-19T07:44:06Z</time>
      </trkpt>
      <trkpt lat="44.32408" lon="2.65113">
        <ele>665.3696289</ele>
        <time>2014-02-19T07:44:13Z</time>
      </trkpt>
      <trkpt lat="44.32408" lon="2.65114">
        <ele>665.3696289</ele>
        <time>2014-02-19T07:44:15Z</time>
      </trkpt>
      <trkpt lat="44.32404" lon="2.65125">
        <ele>665.3696289</ele>
        <time>2014-02-19T07:44:20Z</time>
      </trkpt>
      <trkpt lat="44.32399" lon="2.65136">
        <ele>666.3308105</ele>
        <time>2014-02-19T07:44:23Z</time>
      </trkpt>
      <trkpt lat="44.32391" lon="2.65142">
        <ele>667.2922363</ele>
        <time>2014-02-19T07:44:28Z</time>
      </trkpt>
      <trkpt lat="44.32386" lon="2.65143">
        <ele>667.2922363</ele>
        <time>2014-02-19T07:44:32Z</time>
      </trkpt>
      <trkpt lat="44.32385" lon="2.65153">
        <ele>669.2150879</ele>
        <time>2014-02-19T07:44:38Z</time>
      </trkpt>
      <trkpt lat="44.32385" lon="2.65159">
        <ele>670.1762695</ele>
        <time>2014-02-19T07:44:42Z</time>
      </trkpt>
      <trkpt lat="44.32384" lon="2.65164">
        <ele>670.6569824</ele>
        <time>2014-02-19T07:44:44Z</time>
      </trkpt>
      <trkpt lat="44.32382" lon="2.65172">
        <ele>672.098877</ele>
        <time>2014-02-19T07:44:47Z</time>
      </trkpt>
      <trkpt lat="44.32375" lon="2.65177">
        <ele>674.9829102</ele>
        <time>2014-02-19T07:44:52Z</time>
      </trkpt>
      <trkpt lat="44.32368" lon="2.65171">
        <ele>677.3862305</ele>
        <time>2014-02-19T07:44:57Z</time>
      </trkpt>
      <trkpt lat="44.32365" lon="2.65168">
        <ele>677.8666992</ele>
        <time>2014-02-19T07:44:59Z</time>
      </trkpt>
      <trkpt lat="44.32362" lon="2.65165">
        <ele>678.828125</ele>
        <time>2014-02-19T07:45:01Z</time>
      </trkpt>
      <trkpt lat="44.32355" lon="2.65169">
        <ele>680.2700195</ele>
        <time>2014-02-19T07:45:06Z</time>
      </trkpt>
      <trkpt lat="44.32353" lon="2.65174">
        <ele>680.7507324</ele>
        <time>2014-02-19T07:45:08Z</time>
      </trkpt>
      <trkpt lat="44.32349" lon="2.65181">
        <ele>683.1538086</ele>
        <time>2014-02-19T07:45:12Z</time>
      </trkpt>
      <trkpt lat="44.32343" lon="2.6519">
        <ele>684.1154785</ele>
        <time>2014-02-19T07:45:18Z</time>
      </trkpt>
      <trkpt lat="44.32337" lon="2.65187">
        <ele>684.1154785</ele>
        <time>2014-02-19T07:45:22Z</time>
      </trkpt>
      <trkpt lat="44.32332" lon="2.65184">
        <ele>683.6345215</ele>
        <time>2014-02-19T07:45:25Z</time>
      </trkpt>
      <trkpt lat="44.32321" lon="2.6518">
        <ele>684.5961914</ele>
        <time>2014-02-19T07:45:31Z</time>
      </trkpt>
      <trkpt lat="44.32312" lon="2.65182">
        <ele>683.6345215</ele>
        <time>2014-02-19T07:45:36Z</time>
      </trkpt>
      <trkpt lat="44.32302" lon="2.65189">
        <ele>684.1154785</ele>
        <time>2014-02-19T07:45:42Z</time>
      </trkpt>
      <trkpt lat="44.32301" lon="2.6519">
        <ele>683.6345215</ele>
        <time>2014-02-19T07:45:43Z</time>
      </trkpt>
      <trkpt lat="44.32297" lon="2.65191">
        <ele>683.1538086</ele>
        <time>2014-02-19T07:45:47Z</time>
      </trkpt>
      <trkpt lat="44.32293" lon="2.65191">
        <ele>683.6345215</ele>
        <time>2014-02-19T07:45:50Z</time>
      </trkpt>
      <trkpt lat="44.32286" lon="2.65192">
        <ele>683.1538086</ele>
        <time>2014-02-19T07:45:55Z</time>
      </trkpt>
      <trkpt lat="44.32279" lon="2.65195">
        <ele>682.6733398</ele>
        <time>2014-02-19T07:46:01Z</time>
      </trkpt>
      <trkpt lat="44.32271" lon="2.652">
        <ele>684.1154785</ele>
        <time>2014-02-19T07:46:07Z</time>
      </trkpt>
      <trkpt lat="44.32267" lon="2.65202">
        <ele>685.557373</ele>
        <time>2014-02-19T07:46:12Z</time>
      </trkpt>
      <trkpt lat="44.32267" lon="2.65198">
        <ele>686.0380859</ele>
        <time>2014-02-19T07:46:17Z</time>
      </trkpt>
      <trkpt lat="44.32266" lon="2.65203">
        <ele>686.9992676</ele>
        <time>2014-02-19T07:46:24Z</time>
      </trkpt>
      <trkpt lat="44.32265" lon="2.65204">
        <ele>686.9992676</ele>
        <time>2014-02-19T07:46:25Z</time>
      </trkpt>
      <trkpt lat="44.32258" lon="2.65208">
        <ele>687.4799805</ele>
        <time>2014-02-19T07:46:30Z</time>
      </trkpt>
      <trkpt lat="44.32254" lon="2.6521">
        <ele>688.9221191</ele>
        <time>2014-02-19T07:46:34Z</time>
      </trkpt>
      <trkpt lat="44.3225" lon="2.65217">
        <ele>691.3251953</ele>
        <time>2014-02-19T07:46:40Z</time>
      </trkpt>
      <trkpt lat="44.32245" lon="2.65223">
        <ele>691.3251953</ele>
        <time>2014-02-19T07:46:46Z</time>
      </trkpt>
      <trkpt lat="44.32242" lon="2.6523">
        <ele>691.3251953</ele>
        <time>2014-02-19T07:46:51Z</time>
      </trkpt>
      <trkpt lat="44.32238" lon="2.65238">
        <ele>691.3251953</ele>
        <time>2014-02-19T07:46:57Z</time>
      </trkpt>
      <trkpt lat="44.32236" lon="2.65241">
        <ele>691.8059082</ele>
        <time>2014-02-19T07:47:00Z</time>
      </trkpt>
      <trkpt lat="44.32232" lon="2.65246">
        <ele>694.2092285</ele>
        <time>2014-02-19T07:47:05Z</time>
      </trkpt>
      <trkpt lat="44.32228" lon="2.65253">
        <ele>698.5349121</ele>
        <time>2014-02-19T07:47:10Z</time>
      </trkpt>
      <trkpt lat="44.32224" lon="2.65256">
        <ele>699.015625</ele>
        <time>2014-02-19T07:47:14Z</time>
      </trkpt>
      <trkpt lat="44.32219" lon="2.65267">
        <ele>700.9384766</ele>
        <time>2014-02-19T07:47:21Z</time>
      </trkpt>
      <trkpt lat="44.32218" lon="2.65269">
        <ele>701.4191895</ele>
        <time>2014-02-19T07:47:22Z</time>
      </trkpt>
      <trkpt lat="44.32211" lon="2.65279">
        <ele>702.3803711</ele>
        <time>2014-02-19T07:47:30Z</time>
      </trkpt>
      <trkpt lat="44.32209" lon="2.65282">
        <ele>702.3803711</ele>
        <time>2014-02-19T07:47:32Z</time>
      </trkpt>
      <trkpt lat="44.32203" lon="2.65288">
        <ele>703.8225098</ele>
        <time>2014-02-19T07:47:38Z</time>
      </trkpt>
      <trkpt lat="44.32201" lon="2.65291">
        <ele>704.7836914</ele>
        <time>2014-02-19T07:47:40Z</time>
      </trkpt>
      <trkpt lat="44.32198" lon="2.65294">
        <ele>705.2644043</ele>
        <time>2014-02-19T07:47:43Z</time>
      </trkpt>
      <trkpt lat="44.32194" lon="2.65302">
        <ele>706.7062988</ele>
        <time>2014-02-19T07:47:47Z</time>
      </trkpt>
      <trkpt lat="44.32187" lon="2.65308">
        <ele>707.6677246</ele>
        <time>2014-02-19T07:47:54Z</time>
      </trkpt>
      <trkpt lat="44.32182" lon="2.65316">
        <ele>709.1096191</ele>
        <time>2014-02-19T07:48:01Z</time>
      </trkpt>
      <trkpt lat="44.32176" lon="2.65322">
        <ele>710.5515137</ele>
        <time>2014-02-19T07:48:07Z</time>
      </trkpt>
      <trkpt lat="44.32173" lon="2.65325">
        <ele>711.0322266</ele>
        <time>2014-02-19T07:48:11Z</time>
      </trkpt>
      <trkpt lat="44.32169" lon="2.65332">
        <ele>712.954834</ele>
        <time>2014-02-19T07:48:17Z</time>
      </trkpt>
      <trkpt lat="44.32167" lon="2.65335">
        <ele>713.9160156</ele>
        <time>2014-02-19T07:48:20Z</time>
      </trkpt>
      <trkpt lat="44.32162" lon="2.65346">
        <ele>716.3195801</ele>
        <time>2014-02-19T07:48:28Z</time>
      </trkpt>
      <trkpt lat="44.32152" lon="2.65356">
        <ele>717.7614746</ele>
        <time>2014-02-19T07:48:37Z</time>
      </trkpt>
      <trkpt lat="44.32143" lon="2.65364">
        <ele>718.7229004</ele>
        <time>2014-02-19T07:48:45Z</time>
      </trkpt>
      <trkpt lat="44.32135" lon="2.65371">
        <ele>718.7229004</ele>
        <time>2014-02-19T07:48:51Z</time>
      </trkpt>
      <trkpt lat="44.32126" lon="2.6538">
        <ele>718.7229004</ele>
        <time>2014-02-19T07:48:56Z</time>
      </trkpt>
      <trkpt lat="44.32118" lon="2.65387">
        <ele>718.2421875</ele>
        <time>2014-02-19T07:49:00Z</time>
      </trkpt>
      <trkpt lat="44.3211" lon="2.65394">
        <ele>717.7614746</ele>
        <time>2014-02-19T07:49:04Z</time>
      </trkpt>
      <trkpt lat="44.32103" lon="2.65401">
        <ele>717.7614746</ele>
        <time>2014-02-19T07:49:07Z</time>
      </trkpt>
      <trkpt lat="44.32094" lon="2.65411">
        <ele>718.7229004</ele>
        <time>2014-02-19T07:49:12Z</time>
      </trkpt>
      <trkpt lat="44.32092" lon="2.65412">
        <ele>718.7229004</ele>
        <time>2014-02-19T07:49:13Z</time>
      </trkpt>
      <trkpt lat="44.32086" lon="2.65424">
        <ele>719.2036133</ele>
        <time>2014-02-19T07:49:17Z</time>
      </trkpt>
      <trkpt lat="44.32084" lon="2.65427">
        <ele>719.6843262</ele>
        <time>2014-02-19T07:49:18Z</time>
      </trkpt>
      <trkpt lat="44.32076" lon="2.65443">
        <ele>721.1262207</ele>
        <time>2014-02-19T07:49:24Z</time>
      </trkpt>
      <trkpt lat="44.32073" lon="2.65449">
        <ele>721.6066895</ele>
        <time>2014-02-19T07:49:29Z</time>
      </trkpt>
      <trkpt lat="44.32067" lon="2.65457">
        <ele>721.6066895</ele>
        <time>2014-02-19T07:49:34Z</time>
      </trkpt>
      <trkpt lat="44.3206" lon="2.65463">
        <ele>722.0874023</ele>
        <time>2014-02-19T07:49:38Z</time>
      </trkpt>
      <trkpt lat="44.32054" lon="2.65473">
        <ele>722.5681152</ele>
        <time>2014-02-19T07:49:42Z</time>
      </trkpt>
      <trkpt lat="44.32053" lon="2.65479">
        <ele>722.5681152</ele>
        <time>2014-02-19T07:49:44Z</time>
      </trkpt>
      <trkpt lat="44.32052" lon="2.65485">
        <ele>723.0488281</ele>
        <time>2014-02-19T07:49:46Z</time>
      </trkpt>
      <trkpt lat="44.32049" lon="2.65503">
        <ele>723.529541</ele>
        <time>2014-02-19T07:49:52Z</time>
      </trkpt>
      <trkpt lat="44.32046" lon="2.65528">
        <ele>724.4907227</ele>
        <time>2014-02-19T07:49:59Z</time>
      </trkpt>
      <trkpt lat="44.32042" lon="2.65549">
        <ele>724.9714355</ele>
        <time>2014-02-19T07:50:05Z</time>
      </trkpt>
      <trkpt lat="44.32041" lon="2.65558">
        <ele>724.4907227</ele>
        <time>2014-02-19T07:50:08Z</time>
      </trkpt>
      <trkpt lat="44.32038" lon="2.6557">
        <ele>724.4907227</ele>
        <time>2014-02-19T07:50:12Z</time>
      </trkpt>
      <trkpt lat="44.32034" lon="2.65591">
        <ele>724.9714355</ele>
        <time>2014-02-19T07:50:19Z</time>
      </trkpt>
      <trkpt lat="44.32031" lon="2.65607">
        <ele>725.4519043</ele>
        <time>2014-02-19T07:50:24Z</time>
      </trkpt>
      <trkpt lat="44.32027" lon="2.65624">
        <ele>726.4133301</ele>
        <time>2014-02-19T07:50:29Z</time>
      </trkpt>
      <trkpt lat="44.32023" lon="2.6564">
        <ele>725.9326172</ele>
        <time>2014-02-19T07:50:34Z</time>
      </trkpt>
      <trkpt lat="44.32018" lon="2.65655">
        <ele>725.9326172</ele>
        <time>2014-02-19T07:50:39Z</time>
      </trkpt>
      <trkpt lat="44.32015" lon="2.65672">
        <ele>726.4133301</ele>
        <time>2014-02-19T07:50:44Z</time>
      </trkpt>
      <trkpt lat="44.32013" lon="2.65686">
        <ele>726.894043</ele>
        <time>2014-02-19T07:50:48Z</time>
      </trkpt>
      <trkpt lat="44.32011" lon="2.65701">
        <ele>727.3747559</ele>
        <time>2014-02-19T07:50:53Z</time>
      </trkpt>
      <trkpt lat="44.32007" lon="2.65718">
        <ele>728.3359375</ele>
        <time>2014-02-19T07:50:58Z</time>
      </trkpt>
      <trkpt lat="44.32001" lon="2.65738">
        <ele>728.8166504</ele>
        <time>2014-02-19T07:51:04Z</time>
      </trkpt>
      <trkpt lat="44.31996" lon="2.65751">
        <ele>729.777832</ele>
        <time>2014-02-19T07:51:08Z</time>
      </trkpt>
      <trkpt lat="44.31988" lon="2.65771">
        <ele>731.2199707</ele>
        <time>2014-02-19T07:51:15Z</time>
      </trkpt>
      <trkpt lat="44.31981" lon="2.65787">
        <ele>731.7004395</ele>
        <time>2014-02-19T07:51:21Z</time>
      </trkpt>
      <trkpt lat="44.31976" lon="2.65803">
        <ele>732.6621094</ele>
        <time>2014-02-19T07:51:26Z</time>
      </trkpt>
      <trkpt lat="44.31971" lon="2.65812">
        <ele>733.1425781</ele>
        <time>2014-02-19T07:51:29Z</time>
      </trkpt>
      <trkpt lat="44.31963" lon="2.65829">
        <ele>734.5847168</ele>
        <time>2014-02-19T07:51:35Z</time>
      </trkpt>
      <trkpt lat="44.31955" lon="2.65842">
        <ele>734.5847168</ele>
        <time>2014-02-19T07:51:40Z</time>
      </trkpt>
      <trkpt lat="44.31948" lon="2.65855">
        <ele>735.0654297</ele>
        <time>2014-02-19T07:51:45Z</time>
      </trkpt>
      <trkpt lat="44.31942" lon="2.65865">
        <ele>735.0654297</ele>
        <time>2014-02-19T07:51:49Z</time>
      </trkpt>
      <trkpt lat="44.31934" lon="2.65879">
        <ele>735.0654297</ele>
        <time>2014-02-19T07:51:54Z</time>
      </trkpt>
      <trkpt lat="44.31927" lon="2.65893">
        <ele>735.0654297</ele>
        <time>2014-02-19T07:51:59Z</time>
      </trkpt>
      <trkpt lat="44.31919" lon="2.65906">
        <ele>736.5073242</ele>
        <time>2014-02-19T07:52:04Z</time>
      </trkpt>
      <trkpt lat="44.31915" lon="2.65913">
        <ele>736.5073242</ele>
        <time>2014-02-19T07:52:07Z</time>
      </trkpt>
      <trkpt lat="44.31908" lon="2.65928">
        <ele>738.4299316</ele>
        <time>2014-02-19T07:52:13Z</time>
      </trkpt>
      <trkpt lat="44.31899" lon="2.65941">
        <ele>739.3911133</ele>
        <time>2014-02-19T07:52:19Z</time>
      </trkpt>
      <trkpt lat="44.31894" lon="2.65952">
        <ele>740.3525391</ele>
        <time>2014-02-19T07:52:24Z</time>
      </trkpt>
      <trkpt lat="44.31886" lon="2.65967">
        <ele>741.7944336</ele>
        <time>2014-02-19T07:52:30Z</time>
      </trkpt>
      <trkpt lat="44.31885" lon="2.6597">
        <ele>741.7944336</ele>
        <time>2014-02-19T07:52:31Z</time>
      </trkpt>
      <trkpt lat="44.3188" lon="2.65987">
        <ele>742.7558594</ele>
        <time>2014-02-19T07:52:37Z</time>
      </trkpt>
      <trkpt lat="44.31877" lon="2.65993">
        <ele>742.7558594</ele>
        <time>2014-02-19T07:52:39Z</time>
      </trkpt>
      <trkpt lat="44.3187" lon="2.66011">
        <ele>743.717041</ele>
        <time>2014-02-19T07:52:45Z</time>
      </trkpt>
      <trkpt lat="44.31868" lon="2.66012">
        <ele>743.717041</ele>
        <time>2014-02-19T07:52:46Z</time>
      </trkpt>
      <trkpt lat="44.31863" lon="2.66009">
        <ele>742.2751465</ele>
        <time>2014-02-19T07:52:51Z</time>
      </trkpt>
      <trkpt lat="44.3186" lon="2.66003">
        <ele>740.8330078</ele>
        <time>2014-02-19T07:52:54Z</time>
      </trkpt>
      <trkpt lat="44.31859" lon="2.65998">
        <ele>739.3911133</ele>
        <time>2014-02-19T07:52:57Z</time>
      </trkpt>
      <trkpt lat="44.31856" lon="2.65989">
        <ele>737.9492188</ele>
        <time>2014-02-19T07:53:03Z</time>
      </trkpt>
      <trkpt lat="44.31855" lon="2.65982">
        <ele>736.987793</ele>
        <time>2014-02-19T07:53:07Z</time>
      </trkpt>
      <trkpt lat="44.31853" lon="2.65972">
        <ele>736.0266113</ele>
        <time>2014-02-19T07:53:12Z</time>
      </trkpt>
      <trkpt lat="44.31851" lon="2.65954">
        <ele>735.0654297</ele>
        <time>2014-02-19T07:53:18Z</time>
      </trkpt>
      <trkpt lat="44.31853" lon="2.65945">
        <ele>733.623291</ele>
        <time>2014-02-19T07:53:22Z</time>
      </trkpt>
      <trkpt lat="44.31857" lon="2.65933">
        <ele>731.7004395</ele>
        <time>2014-02-19T07:53:26Z</time>
      </trkpt>
      <trkpt lat="44.3186" lon="2.65925">
        <ele>730.2585449</ele>
        <time>2014-02-19T07:53:30Z</time>
      </trkpt>
      <trkpt lat="44.3186" lon="2.65924">
        <ele>730.2585449</ele>
        <time>2014-02-19T07:53:31Z</time>
      </trkpt>
      <trkpt lat="44.31862" lon="2.65919">
        <ele>728.8166504</ele>
        <time>2014-02-19T07:53:36Z</time>
      </trkpt>
      <trkpt lat="44.31866" lon="2.65911">
        <ele>728.3359375</ele>
        <time>2014-02-19T07:53:42Z</time>
      </trkpt>
      <trkpt lat="44.3187" lon="2.65901">
        <ele>726.894043</ele>
        <time>2014-02-19T07:53:47Z</time>
      </trkpt>
      <trkpt lat="44.31873" lon="2.65895">
        <ele>725.4519043</ele>
        <time>2014-02-19T07:53:50Z</time>
      </trkpt>
      <trkpt lat="44.31878" lon="2.6589">
        <ele>724.0100098</ele>
        <time>2014-02-19T07:53:55Z</time>
      </trkpt>
      <trkpt lat="44.31878" lon="2.65885">
        <ele>723.529541</ele>
        <time>2014-02-19T07:53:59Z</time>
      </trkpt>
      <trkpt lat="44.31877" lon="2.65882">
        <ele>723.529541</ele>
        <time>2014-02-19T07:54:01Z</time>
      </trkpt>
      <trkpt lat="44.31875" lon="2.65878">
        <ele>722.5681152</ele>
        <time>2014-02-19T07:54:04Z</time>
      </trkpt>
      <trkpt lat="44.3187" lon="2.65868">
        <ele>721.6066895</ele>
        <time>2014-02-19T07:54:11Z</time>
      </trkpt>
      <trkpt lat="44.31862" lon="2.65857">
        <ele>721.1262207</ele>
        <time>2014-02-19T07:54:16Z</time>
      </trkpt>
      <trkpt lat="44.31853" lon="2.65843">
        <ele>720.1647949</ele>
        <time>2014-02-19T07:54:22Z</time>
      </trkpt>
      <trkpt lat="44.31842" lon="2.65829">
        <ele>717.7614746</ele>
        <time>2014-02-19T07:54:27Z</time>
      </trkpt>
      <trkpt lat="44.3184" lon="2.65826">
        <ele>717.2810059</ele>
        <time>2014-02-19T07:54:28Z</time>
      </trkpt>
      <trkpt lat="44.3183" lon="2.65815">
        <ele>715.8388672</ele>
        <time>2014-02-19T07:54:33Z</time>
      </trkpt>
      <trkpt lat="44.31826" lon="2.6581">
        <ele>715.8388672</ele>
        <time>2014-02-19T07:54:35Z</time>
      </trkpt>
      <trkpt lat="44.31813" lon="2.6579">
        <ele>714.3967285</ele>
        <time>2014-02-19T07:54:42Z</time>
      </trkpt>
      <trkpt lat="44.31811" lon="2.65788">
        <ele>714.3967285</ele>
        <time>2014-02-19T07:54:43Z</time>
      </trkpt>
      <trkpt lat="44.31804" lon="2.65775">
        <ele>713.9160156</ele>
        <time>2014-02-19T07:54:47Z</time>
      </trkpt>
      <trkpt lat="44.31791" lon="2.65756">
        <ele>712.4741211</ele>
        <time>2014-02-19T07:54:54Z</time>
      </trkpt>
      <trkpt lat="44.31778" lon="2.65738">
        <ele>711.0322266</ele>
        <time>2014-02-19T07:55:01Z</time>
      </trkpt>
      <trkpt lat="44.31765" lon="2.65719">
        <ele>711.5129395</ele>
        <time>2014-02-19T07:55:08Z</time>
      </trkpt>
      <trkpt lat="44.31757" lon="2.65708">
        <ele>711.5129395</ele>
        <time>2014-02-19T07:55:12Z</time>
      </trkpt>
      <trkpt lat="44.3175" lon="2.65699">
        <ele>711.5129395</ele>
        <time>2014-02-19T07:55:16Z</time>
      </trkpt>
      <trkpt lat="44.31739" lon="2.6568">
        <ele>711.5129395</ele>
        <time>2014-02-19T07:55:22Z</time>
      </trkpt>
      <trkpt lat="44.31733" lon="2.65664">
        <ele>711.9936523</ele>
        <time>2014-02-19T07:55:27Z</time>
      </trkpt>
      <trkpt lat="44.31728" lon="2.65648">
        <ele>711.9936523</ele>
        <time>2014-02-19T07:55:32Z</time>
      </trkpt>
      <trkpt lat="44.31728" lon="2.6563">
        <ele>710.5515137</ele>
        <time>2014-02-19T07:55:37Z</time>
      </trkpt>
      <trkpt lat="44.31731" lon="2.65605">
        <ele>706.2255859</ele>
        <time>2014-02-19T07:55:44Z</time>
      </trkpt>
      <trkpt lat="44.31731" lon="2.65587">
        <ele>704.7836914</ele>
        <time>2014-02-19T07:55:49Z</time>
      </trkpt>
      <trkpt lat="44.31731" lon="2.65563">
        <ele>701.8999023</ele>
        <time>2014-02-19T07:55:55Z</time>
      </trkpt>
      <trkpt lat="44.31733" lon="2.65553">
        <ele>700.4580078</ele>
        <time>2014-02-19T07:55:58Z</time>
      </trkpt>
      <trkpt lat="44.31733" lon="2.65539">
        <ele>699.9770508</ele>
        <time>2014-02-19T07:56:03Z</time>
      </trkpt>
      <trkpt lat="44.31735" lon="2.65519">
        <ele>699.9770508</ele>
        <time>2014-02-19T07:56:09Z</time>
      </trkpt>
      <trkpt lat="44.31736" lon="2.65501">
        <ele>699.015625</ele>
        <time>2014-02-19T07:56:15Z</time>
      </trkpt>
      <trkpt lat="44.31734" lon="2.65482">
        <ele>699.4963379</ele>
        <time>2014-02-19T07:56:21Z</time>
      </trkpt>
      <trkpt lat="44.3173" lon="2.65467">
        <ele>701.8999023</ele>
        <time>2014-02-19T07:56:26Z</time>
      </trkpt>
      <trkpt lat="44.31722" lon="2.65443">
        <ele>704.3032227</ele>
        <time>2014-02-19T07:56:34Z</time>
      </trkpt>
      <trkpt lat="44.31715" lon="2.65429">
        <ele>705.2644043</ele>
        <time>2014-02-19T07:56:39Z</time>
      </trkpt>
      <trkpt lat="44.31706" lon="2.65418">
        <ele>706.2255859</ele>
        <time>2014-02-19T07:56:44Z</time>
      </trkpt>
      <trkpt lat="44.31697" lon="2.65408">
        <ele>708.6289063</ele>
        <time>2014-02-19T07:56:48Z</time>
      </trkpt>
      <trkpt lat="44.3169" lon="2.65398">
        <ele>709.590332</ele>
        <time>2014-02-19T07:56:52Z</time>
      </trkpt>
      <trkpt lat="44.31683" lon="2.65387">
        <ele>710.5515137</ele>
        <time>2014-02-19T07:56:57Z</time>
      </trkpt>
      <trkpt lat="44.31674" lon="2.65377">
        <ele>711.5129395</ele>
        <time>2014-02-19T07:57:02Z</time>
      </trkpt>
      <trkpt lat="44.3167" lon="2.65376">
        <ele>712.4741211</ele>
        <time>2014-02-19T07:57:06Z</time>
      </trkpt>
      <trkpt lat="44.3167" lon="2.6537">
        <ele>711.5129395</ele>
        <time>2014-02-19T07:57:14Z</time>
      </trkpt>
      <trkpt lat="44.31671" lon="2.6535">
        <ele>710.5515137</ele>
        <time>2014-02-19T07:57:20Z</time>
      </trkpt>
      <trkpt lat="44.3167" lon="2.65335">
        <ele>710.0708008</ele>
        <time>2014-02-19T07:57:24Z</time>
      </trkpt>
      <trkpt lat="44.31671" lon="2.65315">
        <ele>708.6289063</ele>
        <time>2014-02-19T07:57:29Z</time>
      </trkpt>
      <trkpt lat="44.31672" lon="2.653">
        <ele>707.6677246</ele>
        <time>2014-02-19T07:57:33Z</time>
      </trkpt>
      <trkpt lat="44.31675" lon="2.65279">
        <ele>705.7451172</ele>
        <time>2014-02-19T07:57:38Z</time>
      </trkpt>
      <trkpt lat="44.31679" lon="2.65258">
        <ele>704.7836914</ele>
        <time>2014-02-19T07:57:43Z</time>
      </trkpt>
      <trkpt lat="44.31683" lon="2.65236">
        <ele>703.8225098</ele>
        <time>2014-02-19T07:57:49Z</time>
      </trkpt>
      <trkpt lat="44.31688" lon="2.65221">
        <ele>702.861084</ele>
        <time>2014-02-19T07:57:53Z</time>
      </trkpt>
      <trkpt lat="44.31693" lon="2.65203">
        <ele>701.4191895</ele>
        <time>2014-02-19T07:57:58Z</time>
      </trkpt>
      <trkpt lat="44.31695" lon="2.65188">
        <ele>700.4580078</ele>
        <time>2014-02-19T07:58:02Z</time>
      </trkpt>
      <trkpt lat="44.317" lon="2.65167">
        <ele>699.4963379</ele>
        <time>2014-02-19T07:58:08Z</time>
      </trkpt>
      <trkpt lat="44.31701" lon="2.65164">
        <ele>699.015625</ele>
        <time>2014-02-19T07:58:09Z</time>
      </trkpt>
      <trkpt lat="44.31703" lon="2.65144">
        <ele>698.0544434</ele>
        <time>2014-02-19T07:58:14Z</time>
      </trkpt>
      <trkpt lat="44.31703" lon="2.65129">
        <ele>697.0930176</ele>
        <time>2014-02-19T07:58:18Z</time>
      </trkpt>
      <trkpt lat="44.31703" lon="2.6511">
        <ele>695.651123</ele>
        <time>2014-02-19T07:58:23Z</time>
      </trkpt>
      <trkpt lat="44.31701" lon="2.6509">
        <ele>693.7285156</ele>
        <time>2014-02-19T07:58:28Z</time>
      </trkpt>
      <trkpt lat="44.317" lon="2.65081">
        <ele>692.2866211</ele>
        <time>2014-02-19T07:58:31Z</time>
      </trkpt>
      <trkpt lat="44.31692" lon="2.65066">
        <ele>690.8444824</ele>
        <time>2014-02-19T07:58:36Z</time>
      </trkpt>
      <trkpt lat="44.31682" lon="2.65054">
        <ele>689.8833008</ele>
        <time>2014-02-19T07:58:41Z</time>
      </trkpt>
      <trkpt lat="44.3167" lon="2.65044">
        <ele>688.4414063</ele>
        <time>2014-02-19T07:58:46Z</time>
      </trkpt>
      <trkpt lat="44.31656" lon="2.65029">
        <ele>687.4799805</ele>
        <time>2014-02-19T07:58:52Z</time>
      </trkpt>
      <trkpt lat="44.31643" lon="2.65018">
        <ele>687.4799805</ele>
        <time>2014-02-19T07:58:58Z</time>
      </trkpt>
      <trkpt lat="44.31635" lon="2.6501">
        <ele>687.4799805</ele>
        <time>2014-02-19T07:59:02Z</time>
      </trkpt>
      <trkpt lat="44.31629" lon="2.65008">
        <ele>686.9992676</ele>
        <time>2014-02-19T07:59:04Z</time>
      </trkpt>
      <trkpt lat="44.31617" lon="2.64999">
        <ele>686.0380859</ele>
        <time>2014-02-19T07:59:09Z</time>
      </trkpt>
      <trkpt lat="44.31603" lon="2.64989">
        <ele>684.5961914</ele>
        <time>2014-02-19T07:59:15Z</time>
      </trkpt>
      <trkpt lat="44.31595" lon="2.64981">
        <ele>682.6733398</ele>
        <time>2014-02-19T07:59:19Z</time>
      </trkpt>
      <trkpt lat="44.31587" lon="2.64974">
        <ele>681.2314453</ele>
        <time>2014-02-19T07:59:22Z</time>
      </trkpt>
      <trkpt lat="44.31584" lon="2.64966">
        <ele>679.7893066</ele>
        <time>2014-02-19T07:59:24Z</time>
      </trkpt>
      <trkpt lat="44.31583" lon="2.64948">
        <ele>676.9055176</ele>
        <time>2014-02-19T07:59:28Z</time>
      </trkpt>
      <trkpt lat="44.31582" lon="2.64932">
        <ele>674.0214844</ele>
        <time>2014-02-19T07:59:32Z</time>
      </trkpt>
      <trkpt lat="44.31578" lon="2.64909">
        <ele>669.6958008</ele>
        <time>2014-02-19T07:59:38Z</time>
      </trkpt>
      <trkpt lat="44.31575" lon="2.64894">
        <ele>668.2536621</ele>
        <time>2014-02-19T07:59:42Z</time>
      </trkpt>
      <trkpt lat="44.3157" lon="2.64871">
        <ele>664.888916</ele>
        <time>2014-02-19T07:59:48Z</time>
      </trkpt>
      <trkpt lat="44.31569" lon="2.64844">
        <ele>662.005127</ele>
        <time>2014-02-19T07:59:54Z</time>
      </trkpt>
      <trkpt lat="44.31568" lon="2.64823">
        <ele>660.5629883</ele>
        <time>2014-02-19T07:59:59Z</time>
      </trkpt>
      <trkpt lat="44.31566" lon="2.64802">
        <ele>658.1599121</ele>
        <time>2014-02-19T08:00:04Z</time>
      </trkpt>
      <trkpt lat="44.31564" lon="2.64781">
        <ele>656.2370605</ele>
        <time>2014-02-19T08:00:09Z</time>
      </trkpt>
      <trkpt lat="44.31559" lon="2.64757">
        <ele>653.8339844</ele>
        <time>2014-02-19T08:00:15Z</time>
      </trkpt>
      <trkpt lat="44.31554" lon="2.64741">
        <ele>652.3918457</ele>
        <time>2014-02-19T08:00:19Z</time>
      </trkpt>
      <trkpt lat="44.31546" lon="2.64723">
        <ele>650.949707</ele>
        <time>2014-02-19T08:00:24Z</time>
      </trkpt>
      <trkpt lat="44.31545" lon="2.64701">
        <ele>648.5463867</ele>
        <time>2014-02-19T08:00:29Z</time>
      </trkpt>
      <trkpt lat="44.31551" lon="2.64686">
        <ele>648.5463867</ele>
        <time>2014-02-19T08:00:33Z</time>
      </trkpt>
      <trkpt lat="44.3156" lon="2.64669">
        <ele>647.5852051</ele>
        <time>2014-02-19T08:00:38Z</time>
      </trkpt>
      <trkpt lat="44.31567" lon="2.64649">
        <ele>647.1044922</ele>
        <time>2014-02-19T08:00:43Z</time>
      </trkpt>
      <trkpt lat="44.31571" lon="2.64629">
        <ele>644.7011719</ele>
        <time>2014-02-19T08:00:48Z</time>
      </trkpt>
      <trkpt lat="44.31573" lon="2.64607">
        <ele>641.3366699</ele>
        <time>2014-02-19T08:00:53Z</time>
      </trkpt>
      <trkpt lat="44.3157" lon="2.64589">
        <ele>639.4140625</ele>
        <time>2014-02-19T08:00:57Z</time>
      </trkpt>
      <trkpt lat="44.31571" lon="2.64576">
        <ele>638.4528809</ele>
        <time>2014-02-19T08:01:00Z</time>
      </trkpt>
      <trkpt lat="44.31582" lon="2.64565">
        <ele>637.4914551</ele>
        <time>2014-02-19T08:01:05Z</time>
      </trkpt>
      <trkpt lat="44.31593" lon="2.64555">
        <ele>637.4914551</ele>
        <time>2014-02-19T08:01:10Z</time>
      </trkpt>
      <trkpt lat="44.31605" lon="2.64542">
        <ele>638.9335938</ele>
        <time>2014-02-19T08:01:16Z</time>
      </trkpt>
      <trkpt lat="44.31613" lon="2.64527">
        <ele>639.4140625</ele>
        <time>2014-02-19T08:01:21Z</time>
      </trkpt>
      <trkpt lat="44.31622" lon="2.64511">
        <ele>641.3366699</ele>
        <time>2014-02-19T08:01:27Z</time>
      </trkpt>
      <trkpt lat="44.31631" lon="2.64493">
        <ele>642.7788086</ele>
        <time>2014-02-19T08:01:33Z</time>
      </trkpt>
      <trkpt lat="44.31637" lon="2.64486">
        <ele>643.7399902</ele>
        <time>2014-02-19T08:01:36Z</time>
      </trkpt>
      <trkpt lat="44.31646" lon="2.64483">
        <ele>645.6625977</ele>
        <time>2014-02-19T08:01:41Z</time>
      </trkpt>
      <trkpt lat="44.31653" lon="2.64491">
        <ele>646.6240234</ele>
        <time>2014-02-19T08:01:45Z</time>
      </trkpt>
      <trkpt lat="44.31656" lon="2.64495">
        <ele>647.5852051</ele>
        <time>2014-02-19T08:01:47Z</time>
      </trkpt>
      <trkpt lat="44.31666" lon="2.64503">
        <ele>649.0270996</ele>
        <time>2014-02-19T08:01:53Z</time>
      </trkpt>
      <trkpt lat="44.31674" lon="2.64507">
        <ele>650.4692383</ele>
        <time>2014-02-19T08:01:59Z</time>
      </trkpt>
      <trkpt lat="44.31676" lon="2.64508">
        <ele>651.4304199</ele>
        <time>2014-02-19T08:02:01Z</time>
      </trkpt>
      <trkpt lat="44.31686" lon="2.6451">
        <ele>653.3532715</ele>
        <time>2014-02-19T08:02:09Z</time>
      </trkpt>
      <trkpt lat="44.31692" lon="2.64512">
        <ele>653.8339844</ele>
        <time>2014-02-19T08:02:14Z</time>
      </trkpt>
      <trkpt lat="44.31702" lon="2.64511">
        <ele>654.795166</ele>
        <time>2014-02-19T08:02:21Z</time>
      </trkpt>
      <trkpt lat="44.31707" lon="2.64512">
        <ele>655.2758789</ele>
        <time>2014-02-19T08:02:26Z</time>
      </trkpt>
      <trkpt lat="44.3171" lon="2.64512">
        <ele>655.2758789</ele>
        <time>2014-02-19T08:02:28Z</time>
      </trkpt>
      <trkpt lat="44.31717" lon="2.64514">
        <ele>656.2370605</ele>
        <time>2014-02-19T08:02:33Z</time>
      </trkpt>
      <trkpt lat="44.31731" lon="2.64514">
        <ele>658.6403809</ele>
        <time>2014-02-19T08:02:43Z</time>
      </trkpt>
      <trkpt lat="44.31733" lon="2.64514">
        <ele>658.6403809</ele>
        <time>2014-02-19T08:02:44Z</time>
      </trkpt>
      <trkpt lat="44.31741" lon="2.64515">
        <ele>659.6018066</ele>
        <time>2014-02-19T08:02:50Z</time>
      </trkpt>
      <trkpt lat="44.31746" lon="2.64516">
        <ele>659.6018066</ele>
        <time>2014-02-19T08:02:54Z</time>
      </trkpt>
      <trkpt lat="44.31754" lon="2.64515">
        <ele>659.1210938</ele>
        <time>2014-02-19T08:02:59Z</time>
      </trkpt>
      <trkpt lat="44.31764" lon="2.64517">
        <ele>658.6403809</ele>
        <time>2014-02-19T08:03:06Z</time>
      </trkpt>
      <trkpt lat="44.31768" lon="2.64517">
        <ele>658.6403809</ele>
        <time>2014-02-19T08:03:08Z</time>
      </trkpt>
      <trkpt lat="44.31783" lon="2.6452">
        <ele>659.6018066</ele>
        <time>2014-02-19T08:03:14Z</time>
      </trkpt>
      <trkpt lat="44.31795" lon="2.64525">
        <ele>660.5629883</ele>
        <time>2014-02-19T08:03:19Z</time>
      </trkpt>
      <trkpt lat="44.31808" lon="2.64533">
        <ele>662.4855957</ele>
        <time>2014-02-19T08:03:24Z</time>
      </trkpt>
      <trkpt lat="44.31819" lon="2.64543">
        <ele>663.4470215</ele>
        <time>2014-02-19T08:03:29Z</time>
      </trkpt>
      <trkpt lat="44.31831" lon="2.64556">
        <ele>663.4470215</ele>
        <time>2014-02-19T08:03:35Z</time>
      </trkpt>
      <trkpt lat="44.31838" lon="2.64569">
        <ele>662.4855957</ele>
        <time>2014-02-19T08:03:40Z</time>
      </trkpt>
      <trkpt lat="44.31848" lon="2.64585">
        <ele>661.5244141</ele>
        <time>2014-02-19T08:03:45Z</time>
      </trkpt>
      <trkpt lat="44.31858" lon="2.64598">
        <ele>661.0437012</ele>
        <time>2014-02-19T08:03:50Z</time>
      </trkpt>
      <trkpt lat="44.31868" lon="2.64609">
        <ele>659.6018066</ele>
        <time>2014-02-19T08:03:55Z</time>
      </trkpt>
      <trkpt lat="44.31882" lon="2.64611">
        <ele>659.6018066</ele>
        <time>2014-02-19T08:04:01Z</time>
      </trkpt>
      <trkpt lat="44.31899" lon="2.64609">
        <ele>661.5244141</ele>
        <time>2014-02-19T08:04:07Z</time>
      </trkpt>
      <trkpt lat="44.31916" lon="2.64605">
        <ele>663.9274902</ele>
        <time>2014-02-19T08:04:14Z</time>
      </trkpt>
      <trkpt lat="44.31929" lon="2.64603">
        <ele>665.3696289</ele>
        <time>2014-02-19T08:04:19Z</time>
      </trkpt>
      <trkpt lat="44.3194" lon="2.64604">
        <ele>667.2922363</ele>
        <time>2014-02-19T08:04:24Z</time>
      </trkpt>
      <trkpt lat="44.31955" lon="2.64606">
        <ele>668.734375</ele>
        <time>2014-02-19T08:04:30Z</time>
      </trkpt>
      <trkpt lat="44.31962" lon="2.64608">
        <ele>669.2150879</ele>
        <time>2014-02-19T08:04:33Z</time>
      </trkpt>
      <trkpt lat="44.31972" lon="2.6461">
        <ele>670.1762695</ele>
        <time>2014-02-19T08:04:39Z</time>
      </trkpt>
      <trkpt lat="44.3198" lon="2.64612">
        <ele>670.1762695</ele>
        <time>2014-02-19T08:04:45Z</time>
      </trkpt>
      <trkpt lat="44.31989" lon="2.64614">
        <ele>671.6181641</ele>
        <time>2014-02-19T08:04:51Z</time>
      </trkpt>
      <trkpt lat="44.31999" lon="2.64618">
        <ele>674.0214844</ele>
        <time>2014-02-19T08:04:58Z</time>
      </trkpt>
      <trkpt lat="44.3201" lon="2.6462">
        <ele>675.9440918</ele>
        <time>2014-02-19T08:05:05Z</time>
      </trkpt>
      <trkpt lat="44.32019" lon="2.6462">
        <ele>677.3862305</ele>
        <time>2014-02-19T08:05:12Z</time>
      </trkpt>
      <trkpt lat="44.32027" lon="2.6462">
        <ele>677.3862305</ele>
        <time>2014-02-19T08:05:18Z</time>
      </trkpt>
      <trkpt lat="44.32041" lon="2.64623">
        <ele>679.3085938</ele>
        <time>2014-02-19T08:05:27Z</time>
      </trkpt>
      <trkpt lat="44.32051" lon="2.64625">
        <ele>679.7893066</ele>
        <time>2014-02-19T08:05:34Z</time>
      </trkpt>
      <trkpt lat="44.32063" lon="2.64628">
        <ele>680.7507324</ele>
        <time>2014-02-19T08:05:42Z</time>
      </trkpt>
      <trkpt lat="44.32073" lon="2.6463">
        <ele>681.7119141</ele>
        <time>2014-02-19T08:05:47Z</time>
      </trkpt>
      <trkpt lat="44.32085" lon="2.64632">
        <ele>682.6733398</ele>
        <time>2014-02-19T08:05:52Z</time>
      </trkpt>
      <trkpt lat="44.32101" lon="2.64636">
        <ele>683.6345215</ele>
        <time>2014-02-19T08:05:58Z</time>
      </trkpt>
      <trkpt lat="44.32117" lon="2.64639">
        <ele>684.5961914</ele>
        <time>2014-02-19T08:06:04Z</time>
      </trkpt>
      <trkpt lat="44.32133" lon="2.64642">
        <ele>684.5961914</ele>
        <time>2014-02-19T08:06:10Z</time>
      </trkpt>
      <trkpt lat="44.32145" lon="2.64641">
        <ele>685.557373</ele>
        <time>2014-02-19T08:06:15Z</time>
      </trkpt>
      <trkpt lat="44.32158" lon="2.64643">
        <ele>685.557373</ele>
        <time>2014-02-19T08:06:20Z</time>
      </trkpt>
      <trkpt lat="44.32172" lon="2.64646">
        <ele>685.0769043</ele>
        <time>2014-02-19T08:06:25Z</time>
      </trkpt>
      <trkpt lat="44.32189" lon="2.64649">
        <ele>684.1154785</ele>
        <time>2014-02-19T08:06:31Z</time>
      </trkpt>
      <trkpt lat="44.32203" lon="2.64653">
        <ele>682.6733398</ele>
        <time>2014-02-19T08:06:36Z</time>
      </trkpt>
      <trkpt lat="44.32219" lon="2.64659">
        <ele>680.7507324</ele>
        <time>2014-02-19T08:06:42Z</time>
      </trkpt>
      <trkpt lat="44.32232" lon="2.64667">
        <ele>679.3085938</ele>
        <time>2014-02-19T08:06:47Z</time>
      </trkpt>
      <trkpt lat="44.32249" lon="2.64682">
        <ele>676.9055176</ele>
        <time>2014-02-19T08:06:54Z</time>
      </trkpt>
      <trkpt lat="44.32258" lon="2.64695">
        <ele>675.4633789</ele>
        <time>2014-02-19T08:06:59Z</time>
      </trkpt>
      <trkpt lat="44.32264" lon="2.64708">
        <ele>675.9440918</ele>
        <time>2014-02-19T08:07:03Z</time>
      </trkpt>
      <trkpt lat="44.32266" lon="2.64711">
        <ele>675.9440918</ele>
        <time>2014-02-19T08:07:04Z</time>
      </trkpt>
      <trkpt lat="44.3227" lon="2.64733">
        <ele>674.0214844</ele>
        <time>2014-02-19T08:07:10Z</time>
      </trkpt>
      <trkpt lat="44.32273" lon="2.64748">
        <ele>673.5410156</ele>
        <time>2014-02-19T08:07:14Z</time>
      </trkpt>
      <trkpt lat="44.32277" lon="2.64766">
        <ele>672.098877</ele>
        <time>2014-02-19T08:07:19Z</time>
      </trkpt>
      <trkpt lat="44.32284" lon="2.64784">
        <ele>672.098877</ele>
        <time>2014-02-19T08:07:24Z</time>
      </trkpt>
      <trkpt lat="44.32291" lon="2.64799">
        <ele>671.6181641</ele>
        <time>2014-02-19T08:07:29Z</time>
      </trkpt>
      <trkpt lat="44.32296" lon="2.64811">
        <ele>671.6181641</ele>
        <time>2014-02-19T08:07:33Z</time>
      </trkpt>
      <trkpt lat="44.32299" lon="2.64818">
        <ele>671.1376953</ele>
        <time>2014-02-19T08:07:36Z</time>
      </trkpt>
      <trkpt lat="44.32309" lon="2.64811">
        <ele>670.6569824</ele>
        <time>2014-02-19T08:07:41Z</time>
      </trkpt>
      <trkpt lat="44.32316" lon="2.64797">
        <ele>670.1762695</ele>
        <time>2014-02-19T08:07:46Z</time>
      </trkpt>
      <trkpt lat="44.32323" lon="2.64782">
        <ele>669.6958008</ele>
        <time>2014-02-19T08:07:51Z</time>
      </trkpt>
      <trkpt lat="44.32325" lon="2.6478">
        <ele>669.6958008</ele>
        <time>2014-02-19T08:07:52Z</time>
      </trkpt>
      <trkpt lat="44.32335" lon="2.64763">
        <ele>668.734375</ele>
        <time>2014-02-19T08:07:58Z</time>
      </trkpt>
      <trkpt lat="44.32348" lon="2.6475">
        <ele>667.7727051</ele>
        <time>2014-02-19T08:08:04Z</time>
      </trkpt>
      <trkpt lat="44.32362" lon="2.64746">
        <ele>667.2922363</ele>
        <time>2014-02-19T08:08:10Z</time>
      </trkpt>
      <trkpt lat="44.32369" lon="2.64745">
        <ele>666.8115234</ele>
        <time>2014-02-19T08:08:13Z</time>
      </trkpt>
      <trkpt lat="44.32373" lon="2.64741">
        <ele>666.8115234</ele>
        <time>2014-02-19T08:08:16Z</time>
      </trkpt>
      <trkpt lat="44.32382" lon="2.64733">
        <ele>665.8503418</ele>
        <time>2014-02-19T08:08:23Z</time>
      </trkpt>
      <trkpt lat="44.32386" lon="2.64725">
        <ele>665.3696289</ele>
        <time>2014-02-19T08:08:27Z</time>
      </trkpt>
      <trkpt lat="44.32394" lon="2.64714">
        <ele>663.9274902</ele>
        <time>2014-02-19T08:08:32Z</time>
      </trkpt>
      <trkpt lat="44.32394" lon="2.64713">
        <ele>663.9274902</ele>
        <time>2014-02-19T08:08:33Z</time>
      </trkpt>
      <trkpt lat="44.32398" lon="2.64704">
        <ele>662.005127</ele>
        <time>2014-02-19T08:08:39Z</time>
      </trkpt>
      <trkpt lat="44.32399" lon="2.64702">
        <ele>662.005127</ele>
        <time>2014-02-19T08:08:46Z</time>
      </trkpt>
      <trkpt lat="44.32393" lon="2.64713">
        <ele>662.9663086</ele>
        <time>2014-02-19T08:08:52Z</time>
      </trkpt>
      <trkpt lat="44.32387" lon="2.64721">
        <ele>664.4082031</ele>
        <time>2014-02-19T08:08:57Z</time>
      </trkpt>
      <trkpt lat="44.32385" lon="2.64727">
        <ele>664.4082031</ele>
        <time>2014-02-19T08:08:59Z</time>
      </trkpt>
      <trkpt lat="44.32377" lon="2.6474">
        <ele>663.9274902</ele>
        <time>2014-02-19T08:09:06Z</time>
      </trkpt>
      <trkpt lat="44.32384" lon="2.64742">
        <ele>664.4082031</ele>
        <time>2014-02-19T08:09:10Z</time>
      </trkpt>
      <trkpt lat="44.32391" lon="2.64743">
        <ele>664.4082031</ele>
        <time>2014-02-19T08:09:13Z</time>
      </trkpt>
      <trkpt lat="44.32407" lon="2.6475">
        <ele>663.9274902</ele>
        <time>2014-02-19T08:09:19Z</time>
      </trkpt>
      <trkpt lat="44.32419" lon="2.64757">
        <ele>663.4470215</ele>
        <time>2014-02-19T08:09:24Z</time>
      </trkpt>
      <trkpt lat="44.32433" lon="2.64766">
        <ele>662.9663086</ele>
        <time>2014-02-19T08:09:30Z</time>
      </trkpt>
      <trkpt lat="44.32447" lon="2.64773">
        <ele>662.005127</ele>
        <time>2014-02-19T08:09:36Z</time>
      </trkpt>
      <trkpt lat="44.32462" lon="2.64778">
        <ele>661.5244141</ele>
        <time>2014-02-19T08:09:42Z</time>
      </trkpt>
      <trkpt lat="44.32473" lon="2.64785">
        <ele>660.5629883</ele>
        <time>2014-02-19T08:09:46Z</time>
      </trkpt>
      <trkpt lat="44.32489" lon="2.64794">
        <ele>660.0822754</ele>
        <time>2014-02-19T08:09:52Z</time>
      </trkpt>
      <trkpt lat="44.32505" lon="2.64797">
        <ele>659.1210938</ele>
        <time>2014-02-19T08:09:58Z</time>
      </trkpt>
      <trkpt lat="44.32521" lon="2.64799">
        <ele>656.7177734</ele>
        <time>2014-02-19T08:10:04Z</time>
      </trkpt>
      <trkpt lat="44.32538" lon="2.648">
        <ele>654.3146973</ele>
        <time>2014-02-19T08:10:10Z</time>
      </trkpt>
      <trkpt lat="44.32555" lon="2.648">
        <ele>652.3918457</ele>
        <time>2014-02-19T08:10:16Z</time>
      </trkpt>
      <trkpt lat="44.32567" lon="2.64801">
        <ele>650.4692383</ele>
        <time>2014-02-19T08:10:20Z</time>
      </trkpt>
      <trkpt lat="44.32582" lon="2.64801">
        <ele>648.065918</ele>
        <time>2014-02-19T08:10:25Z</time>
      </trkpt>
      <trkpt lat="44.32596" lon="2.64804">
        <ele>644.7011719</ele>
        <time>2014-02-19T08:10:30Z</time>
      </trkpt>
      <trkpt lat="44.32614" lon="2.64802">
        <ele>641.3366699</ele>
        <time>2014-02-19T08:10:36Z</time>
      </trkpt>
      <trkpt lat="44.32629" lon="2.64796">
        <ele>640.855957</ele>
        <time>2014-02-19T08:10:42Z</time>
      </trkpt>
      <trkpt lat="44.32641" lon="2.64789">
        <ele>641.8173828</ele>
        <time>2014-02-19T08:10:47Z</time>
      </trkpt>
      <trkpt lat="44.32653" lon="2.64787">
        <ele>643.7399902</ele>
        <time>2014-02-19T08:10:51Z</time>
      </trkpt>
      <trkpt lat="44.32669" lon="2.64787">
        <ele>642.7788086</ele>
        <time>2014-02-19T08:10:56Z</time>
      </trkpt>
      <trkpt lat="44.32682" lon="2.64789">
        <ele>640.855957</ele>
        <time>2014-02-19T08:11:01Z</time>
      </trkpt>
      <trkpt lat="44.32694" lon="2.64786">
        <ele>640.855957</ele>
        <time>2014-02-19T08:11:05Z</time>
      </trkpt>
      <trkpt lat="44.32706" lon="2.64785">
        <ele>640.3754883</ele>
        <time>2014-02-19T08:11:11Z</time>
      </trkpt>
      <trkpt lat="44.32714" lon="2.64789">
        <ele>640.3754883</ele>
        <time>2014-02-19T08:11:15Z</time>
      </trkpt>
      <trkpt lat="44.32715" lon="2.6479">
        <ele>640.855957</ele>
        <time>2014-02-19T08:11:16Z</time>
      </trkpt>
      <trkpt lat="44.32719" lon="2.64792">
        <ele>642.2980957</ele>
        <time>2014-02-19T08:11:20Z</time>
      </trkpt>
      <trkpt lat="44.32729" lon="2.64791">
        <ele>642.2980957</ele>
        <time>2014-02-19T08:11:24Z</time>
      </trkpt>
      <trkpt lat="44.32747" lon="2.64791">
        <ele>641.3366699</ele>
        <time>2014-02-19T08:11:31Z</time>
      </trkpt>
      <trkpt lat="44.32752" lon="2.64792">
        <ele>641.8173828</ele>
        <time>2014-02-19T08:11:35Z</time>
      </trkpt>
      <trkpt lat="44.3276" lon="2.64792">
        <ele>643.2592773</ele>
        <time>2014-02-19T08:11:41Z</time>
      </trkpt>
      <trkpt lat="44.32771" lon="2.64791">
        <ele>645.1818848</ele>
        <time>2014-02-19T08:11:49Z</time>
      </trkpt>
      <trkpt lat="44.32783" lon="2.6479">
        <ele>648.065918</ele>
        <time>2014-02-19T08:11:58Z</time>
      </trkpt>
      <trkpt lat="44.32793" lon="2.64792">
        <ele>649.5078125</ele>
        <time>2014-02-19T08:12:05Z</time>
      </trkpt>
      <trkpt lat="44.32803" lon="2.64794">
        <ele>651.4304199</ele>
        <time>2014-02-19T08:12:13Z</time>
      </trkpt>
      <trkpt lat="44.32811" lon="2.64796">
        <ele>653.3532715</ele>
        <time>2014-02-19T08:12:19Z</time>
      </trkpt>
      <trkpt lat="44.3282" lon="2.64799">
        <ele>655.2758789</ele>
        <time>2014-02-19T08:12:26Z</time>
      </trkpt>
      <trkpt lat="44.32831" lon="2.64801">
        <ele>656.2370605</ele>
        <time>2014-02-19T08:12:34Z</time>
      </trkpt>
      <trkpt lat="44.32841" lon="2.64802">
        <ele>656.7177734</ele>
        <time>2014-02-19T08:12:39Z</time>
      </trkpt>
      <trkpt lat="44.32861" lon="2.64803">
        <ele>657.6791992</ele>
        <time>2014-02-19T08:12:47Z</time>
      </trkpt>
      <trkpt lat="44.32877" lon="2.64805">
        <ele>657.6791992</ele>
        <time>2014-02-19T08:12:53Z</time>
      </trkpt>
      <trkpt lat="44.32892" lon="2.64808">
        <ele>658.1599121</ele>
        <time>2014-02-19T08:12:59Z</time>
      </trkpt>
      <trkpt lat="44.32907" lon="2.64812">
        <ele>660.0822754</ele>
        <time>2014-02-19T08:13:05Z</time>
      </trkpt>
      <trkpt lat="44.3292" lon="2.64814">
        <ele>661.0437012</ele>
        <time>2014-02-19T08:13:10Z</time>
      </trkpt>
      <trkpt lat="44.32935" lon="2.64818">
        <ele>661.5244141</ele>
        <time>2014-02-19T08:13:16Z</time>
      </trkpt>
      <trkpt lat="44.32951" lon="2.64821">
        <ele>662.9663086</ele>
        <time>2014-02-19T08:13:22Z</time>
      </trkpt>
      <trkpt lat="44.32965" lon="2.64823">
        <ele>664.4082031</ele>
        <time>2014-02-19T08:13:27Z</time>
      </trkpt>
      <trkpt lat="44.32979" lon="2.64827">
        <ele>665.8503418</ele>
        <time>2014-02-19T08:13:32Z</time>
      </trkpt>
      <trkpt lat="44.32995" lon="2.64832">
        <ele>667.2922363</ele>
        <time>2014-02-19T08:13:38Z</time>
      </trkpt>
      <trkpt lat="44.3301" lon="2.64836">
        <ele>668.2536621</ele>
        <time>2014-02-19T08:13:43Z</time>
      </trkpt>
      <trkpt lat="44.33025" lon="2.64839">
        <ele>669.2150879</ele>
        <time>2014-02-19T08:13:48Z</time>
      </trkpt>
      <trkpt lat="44.33038" lon="2.64841">
        <ele>669.6958008</ele>
        <time>2014-02-19T08:13:53Z</time>
      </trkpt>
      <trkpt lat="44.3305" lon="2.64844">
        <ele>670.6569824</ele>
        <time>2014-02-19T08:13:57Z</time>
      </trkpt>
      <trkpt lat="44.33065" lon="2.64838">
        <ele>670.6569824</ele>
        <time>2014-02-19T08:14:04Z</time>
      </trkpt>
      <trkpt lat="44.33066" lon="2.64836">
        <ele>670.6569824</ele>
        <time>2014-02-19T08:14:05Z</time>
      </trkpt>
      <trkpt lat="44.3307" lon="2.64824">
        <ele>669.6958008</ele>
        <time>2014-02-19T08:14:12Z</time>
      </trkpt>
      <trkpt lat="44.33071" lon="2.64813">
        <ele>670.1762695</ele>
        <time>2014-02-19T08:14:19Z</time>
      </trkpt>
      <trkpt lat="44.33073" lon="2.64796">
        <ele>671.1376953</ele>
        <time>2014-02-19T08:14:28Z</time>
      </trkpt>
      <trkpt lat="44.33076" lon="2.64778">
        <ele>671.6181641</ele>
        <time>2014-02-19T08:14:38Z</time>
      </trkpt>
      <trkpt lat="44.33079" lon="2.64758">
        <ele>671.6181641</ele>
        <time>2014-02-19T08:14:49Z</time>
      </trkpt>
      <trkpt lat="44.33084" lon="2.6474">
        <ele>672.098877</ele>
        <time>2014-02-19T08:14:59Z</time>
      </trkpt>
      <trkpt lat="44.33089" lon="2.64718">
        <ele>673.0603027</ele>
        <time>2014-02-19T08:15:10Z</time>
      </trkpt>
      <trkpt lat="44.33095" lon="2.647">
        <ele>673.0603027</ele>
        <time>2014-02-19T08:15:16Z</time>
      </trkpt>
      <trkpt lat="44.331" lon="2.64677">
        <ele>672.098877</ele>
        <time>2014-02-19T08:15:23Z</time>
      </trkpt>
      <trkpt lat="44.33103" lon="2.64657">
        <ele>673.0603027</ele>
        <time>2014-02-19T08:15:29Z</time>
      </trkpt>
      <trkpt lat="44.33107" lon="2.64635">
        <ele>673.0603027</ele>
        <time>2014-02-19T08:15:35Z</time>
      </trkpt>
      <trkpt lat="44.3311" lon="2.64615">
        <ele>672.5795898</ele>
        <time>2014-02-19T08:15:41Z</time>
      </trkpt>
      <trkpt lat="44.33113" lon="2.64592">
        <ele>672.5795898</ele>
        <time>2014-02-19T08:15:47Z</time>
      </trkpt>
      <trkpt lat="44.33119" lon="2.64575">
        <ele>672.5795898</ele>
        <time>2014-02-19T08:15:52Z</time>
      </trkpt>
      <trkpt lat="44.33127" lon="2.64555">
        <ele>672.5795898</ele>
        <time>2014-02-19T08:15:58Z</time>
      </trkpt>
      <trkpt lat="44.33132" lon="2.64539">
        <ele>672.5795898</ele>
        <time>2014-02-19T08:16:02Z</time>
      </trkpt>
      <trkpt lat="44.33138" lon="2.64518">
        <ele>671.6181641</ele>
        <time>2014-02-19T08:16:08Z</time>
      </trkpt>
      <trkpt lat="44.33146" lon="2.645">
        <ele>672.098877</ele>
        <time>2014-02-19T08:16:13Z</time>
      </trkpt>
      <trkpt lat="44.33151" lon="2.64486">
        <ele>672.098877</ele>
        <time>2014-02-19T08:16:17Z</time>
      </trkpt>
      <trkpt lat="44.33159" lon="2.64468">
        <ele>671.1376953</ele>
        <time>2014-02-19T08:16:22Z</time>
      </trkpt>
      <trkpt lat="44.33164" lon="2.6445">
        <ele>671.1376953</ele>
        <time>2014-02-19T08:16:27Z</time>
      </trkpt>
      <trkpt lat="44.3317" lon="2.64425">
        <ele>670.1762695</ele>
        <time>2014-02-19T08:16:34Z</time>
      </trkpt>
      <trkpt lat="44.33174" lon="2.64407">
        <ele>669.6958008</ele>
        <time>2014-02-19T08:16:39Z</time>
      </trkpt>
      <trkpt lat="44.33181" lon="2.64386">
        <ele>668.2536621</ele>
        <time>2014-02-19T08:16:45Z</time>
      </trkpt>
      <trkpt lat="44.33186" lon="2.64369">
        <ele>668.2536621</ele>
        <time>2014-02-19T08:16:50Z</time>
      </trkpt>
      <trkpt lat="44.33193" lon="2.64352">
        <ele>667.7727051</ele>
        <time>2014-02-19T08:16:55Z</time>
      </trkpt>
      <trkpt lat="44.332" lon="2.64334">
        <ele>666.8115234</ele>
        <time>2014-02-19T08:17:00Z</time>
      </trkpt>
      <trkpt lat="44.33211" lon="2.64306">
        <ele>666.8115234</ele>
        <time>2014-02-19T08:17:08Z</time>
      </trkpt>
      <trkpt lat="44.33219" lon="2.6429">
        <ele>666.3308105</ele>
        <time>2014-02-19T08:17:13Z</time>
      </trkpt>
      <trkpt lat="44.33227" lon="2.64267">
        <ele>666.8115234</ele>
        <time>2014-02-19T08:17:19Z</time>
      </trkpt>
      <trkpt lat="44.33236" lon="2.64245">
        <ele>666.8115234</ele>
        <time>2014-02-19T08:17:25Z</time>
      </trkpt>
      <trkpt lat="44.33243" lon="2.64223">
        <ele>666.3308105</ele>
        <time>2014-02-19T08:17:31Z</time>
      </trkpt>
      <trkpt lat="44.3325" lon="2.64202">
        <ele>665.8503418</ele>
        <time>2014-02-19T08:17:37Z</time>
      </trkpt>
      <trkpt lat="44.33257" lon="2.64184">
        <ele>666.8115234</ele>
        <time>2014-02-19T08:17:42Z</time>
      </trkpt>
      <trkpt lat="44.33261" lon="2.64164">
        <ele>666.8115234</ele>
        <time>2014-02-19T08:17:47Z</time>
      </trkpt>
      <trkpt lat="44.33265" lon="2.64144">
        <ele>666.8115234</ele>
        <time>2014-02-19T08:17:52Z</time>
      </trkpt>
      <trkpt lat="44.33269" lon="2.64125">
        <ele>665.8503418</ele>
        <time>2014-02-19T08:17:57Z</time>
      </trkpt>
      <trkpt lat="44.33274" lon="2.64102">
        <ele>664.888916</ele>
        <time>2014-02-19T08:18:03Z</time>
      </trkpt>
      <trkpt lat="44.33277" lon="2.64082">
        <ele>663.9274902</ele>
        <time>2014-02-19T08:18:08Z</time>
      </trkpt>
      <trkpt lat="44.3328" lon="2.64064">
        <ele>662.9663086</ele>
        <time>2014-02-19T08:18:13Z</time>
      </trkpt>
      <trkpt lat="44.33281" lon="2.64045">
        <ele>662.9663086</ele>
        <time>2014-02-19T08:18:18Z</time>
      </trkpt>
      <trkpt lat="44.33283" lon="2.64027">
        <ele>662.005127</ele>
        <time>2014-02-19T08:18:23Z</time>
      </trkpt>
      <trkpt lat="44.33289" lon="2.64004">
        <ele>661.5244141</ele>
        <time>2014-02-19T08:18:29Z</time>
      </trkpt>
      <trkpt lat="44.33295" lon="2.63983">
        <ele>661.5244141</ele>
        <time>2014-02-19T08:18:35Z</time>
      </trkpt>
      <trkpt lat="44.33298" lon="2.63964">
        <ele>661.0437012</ele>
        <time>2014-02-19T08:18:40Z</time>
      </trkpt>
      <trkpt lat="44.333" lon="2.63946">
        <ele>660.5629883</ele>
        <time>2014-02-19T08:18:45Z</time>
      </trkpt>
      <trkpt lat="44.33304" lon="2.63923">
        <ele>659.6018066</ele>
        <time>2014-02-19T08:18:51Z</time>
      </trkpt>
      <trkpt lat="44.33309" lon="2.63902">
        <ele>658.1599121</ele>
        <time>2014-02-19T08:18:57Z</time>
      </trkpt>
      <trkpt lat="44.33316" lon="2.63872">
        <ele>656.2370605</ele>
        <time>2014-02-19T08:19:05Z</time>
      </trkpt>
      <trkpt lat="44.33321" lon="2.63846">
        <ele>655.2758789</ele>
        <time>2014-02-19T08:19:12Z</time>
      </trkpt>
      <trkpt lat="44.33326" lon="2.63824">
        <ele>652.8725586</ele>
        <time>2014-02-19T08:19:18Z</time>
      </trkpt>
      <trkpt lat="44.33332" lon="2.63803">
        <ele>650.949707</ele>
        <time>2014-02-19T08:19:24Z</time>
      </trkpt>
      <trkpt lat="44.33337" lon="2.63788">
        <ele>650.4692383</ele>
        <time>2014-02-19T08:19:28Z</time>
      </trkpt>
      <trkpt lat="44.33346" lon="2.63763">
        <ele>648.5463867</ele>
        <time>2014-02-19T08:19:35Z</time>
      </trkpt>
      <trkpt lat="44.33351" lon="2.63744">
        <ele>646.1433105</ele>
        <time>2014-02-19T08:19:40Z</time>
      </trkpt>
      <trkpt lat="44.33356" lon="2.63723">
        <ele>643.2592773</ele>
        <time>2014-02-19T08:19:46Z</time>
      </trkpt>
      <trkpt lat="44.33363" lon="2.63702">
        <ele>641.3366699</ele>
        <time>2014-02-19T08:19:52Z</time>
      </trkpt>
      <trkpt lat="44.33368" lon="2.63688">
        <ele>641.3366699</ele>
        <time>2014-02-19T08:19:56Z</time>
      </trkpt>
      <trkpt lat="44.33375" lon="2.63675">
        <ele>639.8947754</ele>
        <time>2014-02-19T08:20:00Z</time>
      </trkpt>
      <trkpt lat="44.33384" lon="2.63661">
        <ele>637.972168</ele>
        <time>2014-02-19T08:20:05Z</time>
      </trkpt>
      <trkpt lat="44.33392" lon="2.63646">
        <ele>635.0881348</ele>
        <time>2014-02-19T08:20:10Z</time>
      </trkpt>
      <trkpt lat="44.33402" lon="2.63631">
        <ele>631.2429199</ele>
        <time>2014-02-19T08:20:15Z</time>
      </trkpt>
      <trkpt lat="44.33415" lon="2.63615">
        <ele>626.4362793</ele>
        <time>2014-02-19T08:20:21Z</time>
      </trkpt>
      <trkpt lat="44.33425" lon="2.63602">
        <ele>624.032959</ele>
        <time>2014-02-19T08:20:26Z</time>
      </trkpt>
      <trkpt lat="44.33438" lon="2.63588">
        <ele>621.6296387</ele>
        <time>2014-02-19T08:20:32Z</time>
      </trkpt>
      <trkpt lat="44.33445" lon="2.63578">
        <ele>620.668457</ele>
        <time>2014-02-19T08:20:36Z</time>
      </trkpt>
      <trkpt lat="44.33451" lon="2.63562">
        <ele>621.6296387</ele>
        <time>2014-02-19T08:20:41Z</time>
      </trkpt>
      <trkpt lat="44.33453" lon="2.63545">
        <ele>622.1103516</ele>
        <time>2014-02-19T08:20:46Z</time>
      </trkpt>
      <trkpt lat="44.33456" lon="2.63524">
        <ele>623.5524902</ele>
        <time>2014-02-19T08:20:52Z</time>
      </trkpt>
      <trkpt lat="44.33459" lon="2.63509">
        <ele>624.032959</ele>
        <time>2014-02-19T08:20:56Z</time>
      </trkpt>
      <trkpt lat="44.33464" lon="2.63488">
        <ele>626.9169922</ele>
        <time>2014-02-19T08:21:02Z</time>
      </trkpt>
      <trkpt lat="44.33469" lon="2.63466">
        <ele>629.3200684</ele>
        <time>2014-02-19T08:21:08Z</time>
      </trkpt>
      <trkpt lat="44.33473" lon="2.63454">
        <ele>631.2429199</ele>
        <time>2014-02-19T08:21:12Z</time>
      </trkpt>
      <trkpt lat="44.33478" lon="2.63438">
        <ele>632.6848145</ele>
        <time>2014-02-19T08:21:17Z</time>
      </trkpt>
      <trkpt lat="44.3348" lon="2.63422">
        <ele>632.6848145</ele>
        <time>2014-02-19T08:21:22Z</time>
      </trkpt>
      <trkpt lat="44.33483" lon="2.63403">
        <ele>632.6848145</ele>
        <time>2014-02-19T08:21:28Z</time>
      </trkpt>
      <trkpt lat="44.33485" lon="2.63383">
        <ele>632.6848145</ele>
        <time>2014-02-19T08:21:34Z</time>
      </trkpt>
      <trkpt lat="44.33487" lon="2.63363">
        <ele>632.6848145</ele>
        <time>2014-02-19T08:21:40Z</time>
      </trkpt>
      <trkpt lat="44.33492" lon="2.63337">
        <ele>632.6848145</ele>
        <time>2014-02-19T08:21:47Z</time>
      </trkpt>
      <trkpt lat="44.33497" lon="2.63318">
        <ele>632.2041016</ele>
        <time>2014-02-19T08:21:53Z</time>
      </trkpt>
      <trkpt lat="44.33502" lon="2.63297">
        <ele>632.6848145</ele>
        <time>2014-02-19T08:21:59Z</time>
      </trkpt>
      <trkpt lat="44.33508" lon="2.63277">
        <ele>633.1652832</ele>
        <time>2014-02-19T08:22:05Z</time>
      </trkpt>
      <trkpt lat="44.3351" lon="2.63267">
        <ele>633.1652832</ele>
        <time>2014-02-19T08:22:08Z</time>
      </trkpt>
      <trkpt lat="44.33517" lon="2.6325">
        <ele>633.1652832</ele>
        <time>2014-02-19T08:22:14Z</time>
      </trkpt>
      <trkpt lat="44.33522" lon="2.6323">
        <ele>632.6848145</ele>
        <time>2014-02-19T08:22:20Z</time>
      </trkpt>
      <trkpt lat="44.33527" lon="2.63209">
        <ele>633.1652832</ele>
        <time>2014-02-19T08:22:26Z</time>
      </trkpt>
      <trkpt lat="44.33533" lon="2.63186">
        <ele>635.5686035</ele>
        <time>2014-02-19T08:22:33Z</time>
      </trkpt>
      <trkpt lat="44.33538" lon="2.63166">
        <ele>636.5302734</ele>
        <time>2014-02-19T08:22:39Z</time>
      </trkpt>
      <trkpt lat="44.33543" lon="2.63151">
        <ele>637.4914551</ele>
        <time>2014-02-19T08:22:44Z</time>
      </trkpt>
      <trkpt lat="44.33551" lon="2.63131">
        <ele>638.9335938</ele>
        <time>2014-02-19T08:22:50Z</time>
      </trkpt>
      <trkpt lat="44.33558" lon="2.63111">
        <ele>639.4140625</ele>
        <time>2014-02-19T08:22:56Z</time>
      </trkpt>
      <trkpt lat="44.33562" lon="2.63097">
        <ele>640.3754883</ele>
        <time>2014-02-19T08:23:00Z</time>
      </trkpt>
      <trkpt lat="44.33564" lon="2.6308">
        <ele>641.8173828</ele>
        <time>2014-02-19T08:23:05Z</time>
      </trkpt>
      <trkpt lat="44.33566" lon="2.6306">
        <ele>643.2592773</ele>
        <time>2014-02-19T08:23:11Z</time>
      </trkpt>
      <trkpt lat="44.33567" lon="2.63046">
        <ele>643.7399902</ele>
        <time>2014-02-19T08:23:15Z</time>
      </trkpt>
      <trkpt lat="44.33574" lon="2.63036">
        <ele>645.1818848</ele>
        <time>2014-02-19T08:23:21Z</time>
      </trkpt>
      <trkpt lat="44.33573" lon="2.63023">
        <ele>646.6240234</ele>
        <time>2014-02-19T08:23:26Z</time>
      </trkpt>
      <trkpt lat="44.33572" lon="2.63016">
        <ele>647.1044922</ele>
        <time>2014-02-19T08:23:28Z</time>
      </trkpt>
      <trkpt lat="44.33571" lon="2.62992">
        <ele>648.065918</ele>
        <time>2014-02-19T08:23:35Z</time>
      </trkpt>
      <trkpt lat="44.3357" lon="2.62988">
        <ele>648.5463867</ele>
        <time>2014-02-19T08:23:36Z</time>
      </trkpt>
      <trkpt lat="44.33573" lon="2.62974">
        <ele>649.0270996</ele>
        <time>2014-02-19T08:23:40Z</time>
      </trkpt>
      <trkpt lat="44.33574" lon="2.6295">
        <ele>648.5463867</ele>
        <time>2014-02-19T08:23:47Z</time>
      </trkpt>
      <trkpt lat="44.33572" lon="2.62938">
        <ele>648.5463867</ele>
        <time>2014-02-19T08:23:51Z</time>
      </trkpt>
    </trkseg>
  </trk>
</gpx>